
Distance (Route):
Temperature : 3.6°C
Humidity : 85.7%
Pressure : 783.4hPa| Receiver | Frames | First received | Last received |
|---|---|---|---|
| SP4MAZ | 230 | 2026-09-01 11:28:58 | 2026-09-01 13:13:29 |
| SP3WXH-11 | 143 | 2026-09-01 11:45:03 | 2026-09-01 13:05:46 |
| SQ9EZE-15 | 32 | 2026-09-01 12:10:03 | 2026-09-01 12:58:45 |
| SP3BTT-10 | 28 | 2026-09-01 12:32:15 | 2026-09-01 12:57:03 |
| SONDE2-11 | 21 | 2026-09-01 12:42:20 | 2026-09-01 12:56:19 |
| OM5KV | 15 | 2026-09-01 12:52:02 | 2026-09-01 12:55:46 |
| Receiver | Date | Latitude | Longitude | Direction | Speed | Altitude | Climb | Temperature | Humidity | Pressure | Voltage | Killtimer | Uptime | BKT | XDATA |
|---|---|---|---|---|---|---|---|---|---|---|---|---|---|---|---|
| SP4MAZ | 2026-09-01 13:13:29 | 52.48995 | 22.15426 | 83° | 58km/h | 2191m | -13.1m/s | 3.6°C | 85.7% | 783.4hPa | 2.6V | 08:12:00 | 00:00:00 | 00:00:00 | |
| SP4MAZ | 2026-09-01 13:13:08 | 52.48953 | 22.14913 | 82° | 64km/h | 2444m | -12.3m/s | 1.7°C | 90.5% | 759.2hPa | 2.6V | 08:12:00 | 00:00:00 | 00:00:00 | |
| SP4MAZ | 2026-09-01 13:12:47 | 52.48929 | 22.14448 | 90° | 51km/h | 2715m | -13.8m/s | 0.1°C | 92.5% | 734.3hPa | 2.6V | 00:00:00 | 00:00:00 | 00:00:00 | |
| SP4MAZ | 2026-09-01 13:12:24 | 52.48910 | 22.13982 | 85° | 51km/h | 3027m | -14.4m/s | -1.8°C | 92.3% | 705.6hPa | 2.6V | 00:00:00 | 00:00:00 | 00:00:00 | |
| SP4MAZ | 2026-09-01 13:12:04 | 52.48875 | 22.13566 | 81° | 55km/h | 3303m | -14.2m/s | -3.0°C | 88.0% | 681.4hPa | 2.6V | 00:00:00 | 00:00:00 | 00:00:00 | |
| SP4MAZ | 2026-09-01 13:11:33 | 52.48790 | 22.12870 | 83° | 55km/h | 3749m | -14.0m/s | -5.3°C | 79.6% | 644.0hPa | 2.6V | 00:00:00 | 00:00:00 | 00:00:00 | |
| SP4MAZ | 2026-09-01 13:11:13 | 52.48753 | 22.12434 | 87° | 51km/h | 4043m | -14.3m/s | -7.4°C | 89.4% | 620.4hPa | 2.6V | 00:00:00 | 00:00:00 | 00:00:00 | |
| SP4MAZ | 2026-09-01 13:10:53 | 52.48761 | 22.12001 | 95° | 57km/h | 4314m | -14.8m/s | -9.3°C | 96.4% | 598.9hPa | 2.6V | 00:00:00 | 00:00:00 | 00:00:00 | |
| SP4MAZ | 2026-09-01 13:10:11 | 52.48779 | 22.10962 | 90° | 68km/h | 4921m | -15.6m/s | -13.1°C | 86.7% | 553.6hPa | 2.6V | 00:00:00 | 00:00:00 | 00:00:00 | |
| SP4MAZ | 2026-09-01 13:09:51 | 52.48772 | 22.10410 | 90° | 68km/h | 5222m | -15.5m/s | -14.7°C | 46.6% | 531.8hPa | 2.6V | 00:00:00 | 00:00:00 | 00:00:00 | |
| SP4MAZ | 2026-09-01 13:09:30 | 52.48766 | 22.09848 | 94° | 64km/h | 5544m | -15.8m/s | -17.1°C | 43.8% | 509.6hPa | 2.6V | 00:00:00 | 00:00:00 | 00:00:00 | |
| SP4MAZ | 2026-09-01 13:08:59 | 52.48847 | 22.08966 | 104° | 73km/h | 6023m | -16.1m/s | -21.4°C | 39.7% | 477.6hPa | 2.6V | 00:00:00 | 00:00:00 | 00:00:00 | |
| SP4MAZ | 2026-09-01 13:08:36 | 52.48930 | 22.08276 | 102° | 75km/h | 6392m | -16.7m/s | -24.3°C | 39.7% | 454.4hPa | 2.6V | 00:00:00 | 00:00:00 | 00:00:00 | |
| SP4MAZ | 2026-09-01 13:08:05 | 52.49075 | 22.07345 | 107° | 78km/h | 6889m | -15.9m/s | -28.8°C | 48.4% | 424.1hPa | 2.6V | 00:00:00 | 00:00:00 | 00:00:00 | |
| SP4MAZ | 2026-09-01 13:07:40 | 52.49212 | 22.06537 | 105° | 86km/h | 7292m | -16.3m/s | -32.0°C | 37.5% | 400.6hPa | 2.6V | 00:00:00 | 00:00:00 | 00:00:00 | |
| SP4MAZ | 2026-09-01 13:07:20 | 52.49317 | 22.05892 | 105° | 82km/h | 7621m | -17.3m/s | -34.9°C | 39.3% | 382.3hPa | 2.6V | 00:00:00 | 00:00:00 | 00:00:00 | |
| SP4MAZ | 2026-09-01 13:06:49 | 52.49476 | 22.04930 | 108° | 73km/h | 8142m | -17.3m/s | -39.3°C | 42.0% | 354.5hPa | 2.6V | 00:00:00 | 00:00:00 | 00:00:00 | |
| SP4MAZ | 2026-09-01 13:06:29 | 52.49592 | 22.04278 | 109° | 100km/h | 8492m | -17.6m/s | -40.2°C | 12.7% | 336.9hPa | 2.6V | 00:00:00 | 00:00:00 | 00:00:00 | |
| SP4MAZ | 2026-09-01 13:06:06 | 52.49786 | 22.03325 | 114° | 108km/h | 8913m | -17.9m/s | -41.2°C | 8.3% | 316.9hPa | 2.6V | 00:00:00 | 00:00:00 | 00:00:00 | |
| SP3WXH-11 | 2026-09-01 13:05:46 | 52.50056 | 22.02091 | 110° | 104km/h | 9520m | -19.5m/s | -42.7°C | 5.9% | 289.9hPa | 2.6V | 00:00:00 | 00:00:00 | 00:00:00 | |
| SP4MAZ | 2026-09-01 13:05:17 | 52.50188 | 22.01442 | 106° | 86km/h | 9848m | -20.6m/s | -43.3°C | 4.5% | 276.1hPa | 2.6V | 00:00:00 | 00:00:00 | 00:00:00 | |
| SP3WXH-11 | 2026-09-01 13:05:14 | 52.50206 | 22.01299 | 99° | 86km/h | 9926m | -18.6m/s | -43.3°C | 4.3% | 272.9hPa | 2.6V | 00:00:00 | 00:00:00 | 00:00:00 | |
| SP4MAZ | 2026-09-01 13:04:57 | 52.50236 | 22.00729 | 97° | 82km/h | 10239m | -20.2m/s | -45.3°C | 4.1% | 260.6hPa | 2.6V | 00:00:00 | 00:00:00 | 00:00:00 | |
| SP3WXH-11 | 2026-09-01 13:04:44 | 52.50249 | 22.00154 | 94° | 97km/h | 10538m | -21.1m/s | -45.8°C | 2.9% | 249.4hPa | 2.6V | 00:00:00 | 00:00:00 | 00:00:00 | |
| SP4MAZ | 2026-09-01 13:04:33 | 52.50266 | 21.99807 | 93° | 88km/h | 10716m | -21.1m/s | -46.0°C | 2.8% | 242.7hPa | 2.6V | 00:00:00 | 00:00:00 | 00:00:00 | |
| SP4MAZ | 2026-09-01 13:04:13 | 52.50284 | 21.99140 | 91° | 78km/h | 11117m | -20.8m/s | -46.6°C | 2.2% | 228.2hPa | 2.6V | 08:21:00 | 00:00:00 | 00:00:00 | |
| SP3WXH-11 | 2026-09-01 13:04:12 | 52.50285 | 21.99077 | 91° | 75km/h | 11160m | -20.2m/s | -46.4°C | 2.0% | 226.7hPa | 2.6V | 00:00:00 | 00:00:00 | 00:00:00 | |
| SP4MAZ | 2026-09-01 13:03:52 | 52.50240 | 21.98488 | 85° | 68km/h | 11549m | -20.9m/s | -46.9°C | 1.7% | 213.8hPa | 2.6V | 08:21:00 | 00:00:00 | 00:00:00 | |
| SP3WXH-11 | 2026-09-01 13:03:41 | 52.50212 | 21.98155 | 79° | 69km/h | 11814m | -21.5m/s | -47.2°C | 1.5% | 205.6hPa | 2.6V | 00:00:00 | 00:00:00 | 00:00:00 | |
| SP4MAZ | 2026-09-01 13:03:32 | 52.50182 | 21.97915 | 77° | 73km/h | 11988m | -22.4m/s | -48.1°C | 1.4% | 200.1hPa | 2.6V | 08:21:00 | 00:00:00 | 00:00:00 | |
| SP4MAZ | 2026-09-01 13:03:11 | 52.50130 | 21.97374 | 80° | 69km/h | 12455m | -21.8m/s | -48.9°C | 1.2% | 186.4hPa | 2.6V | 08:22:00 | 00:00:00 | 00:00:00 | |
| SP3WXH-11 | 2026-09-01 13:03:10 | 52.50123 | 21.97318 | 77° | 71km/h | 12499m | -22.0m/s | -48.9°C | 1.2% | 185.2hPa | 2.6V | 00:00:00 | 00:00:00 | 00:00:00 | |
| SP4MAZ | 2026-09-01 13:02:50 | 52.50056 | 21.96876 | 67° | 55km/h | 12924m | -23.5m/s | -48.8°C | 1.1% | 173.8hPa | 2.6V | 00:00:00 | 00:00:00 | 00:00:00 | |
| SP3WXH-11 | 2026-09-01 13:02:39 | 52.49963 | 21.96601 | 62° | 68km/h | 13209m | -23.7m/s | -50.6°C | 1.3% | 166.4hPa | 2.6V | 00:00:00 | 00:00:00 | 00:00:00 | |
| SP4MAZ | 2026-09-01 13:02:30 | 52.49903 | 21.96382 | 68° | 80km/h | 13402m | -23.1m/s | -51.9°C | 1.3% | 161.5hPa | 2.6V | 00:00:00 | 00:00:00 | 00:00:00 | |
| SP3WXH-11 | 2026-09-01 13:02:08 | 52.49844 | 21.95556 | 92° | 89km/h | 13956m | -25.0m/s | -49.1°C | 1.1% | 148.4hPa | 2.6V | 00:00:00 | 00:00:00 | 00:00:00 | |
| SP4MAZ | 2026-09-01 13:01:59 | 52.49861 | 21.95292 | 104° | 66km/h | 14155m | -25.9m/s | -46.8°C | 0.9% | 144.1hPa | 2.6V | 00:00:00 | 00:00:00 | 00:00:00 | |
| SP4MAZ | 2026-09-01 13:01:39 | 52.49877 | 21.94984 | 74° | 22km/h | 14676m | -27.4m/s | -48.5°C | 0.9% | 133.2hPa | 2.6V | 00:00:00 | 00:00:00 | 00:00:00 | |
| SP3WXH-11 | 2026-09-01 13:01:37 | 52.49869 | 21.94955 | 64° | 29km/h | 14757m | -27.9m/s | -48.7°C | 0.9% | 131.6hPa | 2.6V | 00:00:00 | 00:00:00 | 00:00:00 | |
| SP4MAZ | 2026-09-01 13:01:19 | 52.49787 | 21.94738 | 59° | 49km/h | 15266m | -27.0m/s | -51.8°C | 1.1% | 121.7hPa | 2.6V | 00:00:00 | 00:00:00 | 00:00:00 | |
| SP3WXH-11 | 2026-09-01 13:01:06 | 52.49714 | 21.94512 | 68° | 38km/h | 15646m | -30.2m/s | -51.2°C | 1.0% | 114.9hPa | 2.6V | 00:00:00 | 00:00:00 | 00:00:00 | |
| SP4MAZ | 2026-09-01 13:00:56 | 52.49693 | 21.94389 | 69° | 31km/h | 15908m | -28.5m/s | -50.8°C | 1.0% | 110.3hPa | 2.6V | 00:00:00 | 00:00:00 | 00:00:00 | |
| SP3WXH-11 | 2026-09-01 13:00:35 | 52.49582 | 21.94045 | 69° | 60km/h | 16512m | -19.4m/s | -51.1°C | 1.0% | 100.2hPa | 2.6V | 00:00:00 | 00:00:00 | 00:00:00 | |
| SP4MAZ | 2026-09-01 13:00:32 | 52.49573 | 21.94000 | 74° | 58km/h | 16551m | -21.7m/s | -51.0°C | 1.0% | 99.7hPa | 2.6V | 00:00:00 | 00:00:00 | 00:00:00 | |
| SP4MAZ | 2026-09-01 12:59:58 | 52.49501 | 21.93593 | 73° | 26km/h | 17555m | -30.0m/s | -50.2°C | 0.9% | 85.8hPa | 2.6V | 00:00:00 | 00:00:00 | 00:00:00 | |
| SP3WXH-11 | 2026-09-01 12:59:33 | 52.49455 | 21.93370 | 50° | 22km/h | 18366m | -35.1m/s | -50.2°C | 0.8% | 75.9hPa | 2.6V | 00:00:00 | 00:00:00 | 00:00:00 | |
| SP4MAZ | 2026-09-01 12:59:28 | 52.49434 | 21.93340 | 48° | 18km/h | 18571m | -32.4m/s | -50.4°C | 0.8% | 73.4hPa | 2.6V | 00:00:00 | 00:00:00 | 00:00:00 | |
| SP4MAZ | 2026-09-01 12:59:04 | 52.49373 | 21.93240 | 38° | 24km/h | 19354m | -34.9m/s | -52.0°C | 0.9% | 65.2hPa | 2.6V | 00:00:00 | 00:00:00 | 00:00:00 | |
| SP3WXH-11 | 2026-09-01 12:59:02 | 52.49361 | 21.93228 | 26° | 20km/h | 19458m | -36.3m/s | -51.5°C | 0.8% | 64.2hPa | 2.6V | 00:00:00 | 00:00:00 | 00:00:00 | |
| SQ9EZE-15 | 2026-09-01 12:58:45 | 52.49290 | 21.93147 | 68° | 29km/h | 20037m | -35.9m/s | -51.9°C | 0.9% | 58.7hPa | 2.6V | 00:00:00 | 00:00:00 | 00:00:00 | |
| SP4MAZ | 2026-09-01 12:58:44 | 52.49286 | 21.93136 | 70° | 31km/h | 20074m | -35.9m/s | -51.8°C | 0.9% | 58.3hPa | 2.6V | 00:00:00 | 00:00:00 | 00:00:00 | |
| SP3WXH-11 | 2026-09-01 12:58:31 | 52.49280 | 21.93019 | 131° | 13km/h | 20577m | -35.6m/s | -51.1°C | 0.8% | 54.0hPa | 2.6V | 00:00:00 | 00:00:00 | 00:00:00 | |
| SP4MAZ | 2026-09-01 12:58:12 | 52.49285 | 21.92992 | 49° | 5km/h | 21263m | -41.9m/s | -52.2°C | 0.9% | 48.7hPa | 2.6V | 08:27:00 | 00:00:00 | 00:00:00 | |
| SP3WXH-11 | 2026-09-01 12:58:00 | 52.49270 | 21.92955 | 111° | 2km/h | 21808m | -42.7m/s | -50.7°C | 0.7% | 44.7hPa | 2.6V | 00:00:00 | 00:00:00 | 00:00:00 | |
| SP4MAZ | 2026-09-01 12:57:52 | 52.49271 | 21.92939 | 164° | 4km/h | 22124m | -45.2m/s | -52.2°C | 0.8% | 42.6hPa | 2.6V | 08:27:00 | 00:00:00 | 00:00:00 | |
| SQ9EZE-15 | 2026-09-01 12:57:33 | 52.49249 | 21.92889 | 144° | 11km/h | 23020m | -48.3m/s | -52.5°C | 0.9% | 37.2hPa | 2.6V | 08:27:00 | 00:00:00 | 00:00:00 | |
| SP4MAZ | 2026-09-01 12:57:30 | 52.49252 | 21.92877 | 117° | 9km/h | 23165m | -48.6m/s | -52.6°C | 0.9% | 36.3hPa | 2.6V | 08:27:00 | 00:00:00 | 00:00:00 | |
| SP3WXH-11 | 2026-09-01 12:57:29 | 52.49253 | 21.92869 | 98° | 9km/h | 23262m | -48.2m/s | -52.1°C | 0.8% | 35.8hPa | 2.6V | 00:00:00 | 00:00:00 | 00:00:00 | |
| SQ9EZE-15 | 2026-09-01 12:57:14 | 52.49277 | 21.92784 | 131° | 16km/h | 23970m | -46.3m/s | -50.4°C | 0.7% | 32.1hPa | 2.6V | 00:00:00 | 00:00:00 | 00:00:00 | |
| SP4MAZ | 2026-09-01 12:57:07 | 52.49286 | 21.92760 | 152° | 7km/h | 24268m | -50.8m/s | -51.2°C | 0.8% | 30.7hPa | 2.6V | 00:00:00 | 00:00:00 | 00:00:00 | |
| SP3BTT-10 | 2026-09-01 12:57:03 | 52.49288 | 21.92756 | 166° | 5km/h | 24526m | -50.1m/s | -51.1°C | 3.7% | 29.5hPa | 2.6V | 00:00:00 | 00:00:00 | 00:00:00 | |
| SP3WXH-11 | 2026-09-01 12:56:58 | 52.49293 | 21.92753 | 244° | 0km/h | 24778m | -52.6m/s | -50.6°C | 0.8% | 28.4hPa | 2.6V | 00:00:00 | 00:00:00 | 00:00:00 | |
| SP4MAZ | 2026-09-01 12:56:44 | 52.49274 | 21.92752 | 54° | 15km/h | 25495m | -57.8m/s | -49.3°C | 0.7% | 25.5hPa | 2.6V | 00:00:00 | 00:00:00 | 00:00:00 | |
| SONDE2-11 | 2026-09-01 12:56:19 | 52.49262 | 21.92678 | 80° | 2km/h | 27138m | -65.1m/s | -46.3°C | 0.6% | 20.0hPa | 2.6V | 00:00:00 | 00:00:00 | 00:00:00 | |
| SP3BTT-10 | 2026-09-01 12:56:18 | 52.49262 | 21.92678 | 81° | 9km/h | 27138m | -65.0m/s | -46.2°C | 2.9% | 19.9hPa | 2.6V | 00:00:00 | 00:00:00 | 08:30:00 | |
| SP4MAZ | 2026-09-01 12:56:13 | 52.49256 | 21.92666 | 72° | 13km/h | 27396m | -64.9m/s | -46.5°C | 0.5% | 19.2hPa | 2.7V | 00:00:00 | 00:00:00 | 00:00:00 | |
| SP3WXH-11 | 2026-09-01 12:55:57 | 52.49252 | 21.92499 | 98° | 24km/h | 28674m | -71.5m/s | -43.0°C | 0.4% | 15.9hPa | 2.7V | 00:00:00 | 00:00:00 | 00:00:00 | |
| SONDE2-11 | 2026-09-01 12:55:47 | 52.49260 | 21.92441 | 79° | 13km/h | 29244m | -72.8m/s | -42.9°C | 0.4% | 14.7hPa | 2.7V | 00:00:00 | 00:00:00 | 00:00:00 | |
| OM5KV | 2026-09-01 12:55:46 | 52.49260 | 21.92441 | 81° | 15km/h | 29244m | -72.8m/s | 0°C | 0% | 0hPa | 2.7V | 00:00:00 | 00:00:00 | 00:00:00 | |
| OM5KV | 2026-09-01 12:55:43 | 52.49258 | 21.92422 | 76° | 20km/h | 29463m | -73.6m/s | 0°C | 0% | 14.2hPa | 2.7V | 00:00:00 | 00:00:00 | 00:00:00 | |
| OM5KV | 2026-09-01 12:55:38 | 52.49254 | 21.92385 | 84° | 18km/h | 29833m | -74.7m/s | 0°C | 0% | 13.5hPa | 2.7V | 00:00:00 | 00:00:00 | 00:00:00 | |
| OM5KV | 2026-09-01 12:55:31 | 52.49250 | 21.92342 | 81° | 11km/h | 30366m | -79.4m/s | 0°C | 0% | 0hPa | 2.7V | 00:00:00 | 00:00:00 | 00:00:00 | |
| SP4MAZ | 2026-09-01 12:55:30 | 52.49249 | 21.92336 | 80° | 11km/h | 30446m | -79.9m/s | -40.1°C | 0.4% | 12.3hPa | 2.7V | 00:00:00 | 00:00:00 | 00:00:00 | |
| SP3WXH-11 | 2026-09-01 12:55:25 | 52.49244 | 21.92308 | 45° | 9km/h | 31003m | -77.3m/s | -39.9°C | 0.3% | 11.3hPa | 2.7V | 00:00:00 | 00:00:00 | 00:00:00 | |
| OM5KV | 2026-09-01 12:55:23 | 52.49244 | 21.92308 | 46° | 9km/h | 31003m | -77.3m/s | 0°C | 0% | 0hPa | 2.7V | 00:00:00 | 00:00:00 | 00:00:00 | |
| SP3BTT-10 | 2026-09-01 12:55:18 | 52.49232 | 21.92286 | 70° | 27km/h | 31478m | -80.0m/s | -38.6°C | 2.1% | 10.6hPa | 2.7V | 00:00:00 | 00:00:00 | 00:00:00 | |
| OM5KV | 2026-09-01 12:55:17 | 52.49232 | 21.92286 | 71° | 11km/h | 31478m | -80.0m/s | 0°C | 0% | 0hPa | 2.7V | 00:00:00 | 00:00:00 | 00:00:00 | |
| SONDE2-11 | 2026-09-01 12:55:16 | 52.49228 | 21.92276 | 60° | 15km/h | 31636m | -80.0m/s | -37.6°C | 0.3% | 10.3hPa | 2.7V | 00:00:00 | 00:00:00 | 00:00:00 | |
| OM5KV | 2026-09-01 12:55:12 | 52.49220 | 21.92254 | 55° | 20km/h | 31955m | -80.6m/s | 0°C | 0% | 0hPa | 2.7V | 00:00:00 | 00:00:00 | 00:00:00 | |
| OM5KV | 2026-09-01 12:55:09 | 52.49214 | 21.92241 | 55° | 20km/h | 32113m | -78.6m/s | 0°C | 0% | 9.6hPa | 2.7V | 00:00:00 | 00:00:00 | 00:00:00 | |
| OM5KV | 2026-09-01 12:55:05 | 52.49201 | 21.92213 | 61° | 22km/h | 32417m | -76.1m/s | 0°C | 0% | 0hPa | 2.7V | 00:00:00 | 00:00:00 | 00:00:00 | |
| OM5KV | 2026-09-01 12:55:03 | 52.49197 | 21.92197 | 66° | 24km/h | 32565m | -74.8m/s | 0°C | 0% | 9.0hPa | 2.7V | 00:00:00 | 00:00:00 | 00:00:00 | |
| SP3WXH-11 | 2026-09-01 12:54:54 | 52.49184 | 21.92076 | 98° | 24km/h | 33292m | -61.7m/s | -33.8°C | 0.2% | 8.0hPa | 2.7V | 00:00:00 | 00:00:00 | 00:00:00 | |
| OM5KV | 2026-09-01 12:54:51 | 52.49186 | 21.92067 | 107° | 20km/h | 33352m | -61.1m/s | 0°C | 0% | 7.9hPa | 2.7V | 00:00:00 | 00:00:00 | 00:00:00 | |
| SONDE2-11 | 2026-09-01 12:54:45 | 52.49218 | 21.91937 | 81° | 40km/h | 33839m | -35.6m/s | -33.3°C | 0.2% | 7.3hPa | 2.7V | 00:00:00 | 00:00:00 | 00:00:00 | |
| OM5KV | 2026-09-01 12:54:39 | 52.49202 | 21.91903 | 66° | 22km/h | 33915m | -17.1m/s | 0°C | 0% | 0hPa | 2.7V | 00:00:00 | 00:00:00 | 00:00:00 | |
| OM5KV | 2026-09-01 12:54:33 | 52.49192 | 21.91821 | 114° | 27km/h | 33906m | 5.8m/s | 0°C | 0% | 0hPa | 2.7V | 00:00:00 | 00:00:00 | 00:00:00 | |
| SP3BTT-10 | 2026-09-01 12:54:32 | 52.49194 | 21.91812 | 110° | 24km/h | 33900m | 6.2m/s | -33.2°C | 1.5% | 7.2hPa | 2.7V | 00:00:00 | 00:00:00 | 00:00:00 | |
| SP4MAZ | 2026-09-01 12:54:28 | 52.49195 | 21.91800 | 295° | 2km/h | 33879m | 5.8m/s | -33.4°C | 0.2% | 7.3hPa | 2.7V | 00:00:00 | 00:00:00 | 00:00:00 | |
| OM5KV | 2026-09-01 12:54:26 | 52.49195 | 21.91802 | 220° | 5km/h | 33865m | 7.8m/s | 0°C | 0% | 0hPa | 2.7V | 00:00:00 | 00:00:00 | 00:00:00 | |
| SP3WXH-11 | 2026-09-01 12:54:23 | 52.49201 | 21.91786 | 85° | 16km/h | 33832m | 7.5m/s | -33.4°C | 0.2% | 7.3hPa | 2.7V | 00:00:00 | 00:00:00 | 00:00:00 | |
| SONDE2-11 | 2026-09-01 12:54:14 | 52.49232 | 21.91751 | 132° | 2km/h | 33762m | 6.7m/s | -33.3°C | 0.2% | 7.4hPa | 2.7V | 00:00:00 | 00:00:00 | 00:00:00 | |
| SP4MAZ | 2026-09-01 12:54:08 | 52.49233 | 21.91746 | 128° | 11km/h | 33741m | 6.9m/s | -33.3°C | 0.2% | 7.4hPa | 2.7V | 00:00:00 | 00:00:00 | 00:00:00 | |
| SQ9EZE-15 | 2026-09-01 12:54:04 | 52.49251 | 21.91722 | 124° | 27km/h | 33713m | 8.3m/s | -33.2°C | 0.2% | 7.4hPa | 2.7V | 00:00:00 | 00:00:00 | 00:00:00 | |
| SP3WXH-11 | 2026-09-01 12:53:52 | 52.49283 | 21.91635 | 134° | 20km/h | 33612m | 6.8m/s | -32.9°C | 0.2% | 7.5hPa | 2.7V | 00:00:00 | 00:00:00 | 00:00:00 | |
| SP4MAZ | 2026-09-01 12:53:42 | 52.49308 | 21.91556 | 109° | 24km/h | 33557m | 6.6m/s | -32.8°C | 0.2% | 7.6hPa | 2.7V | 00:00:00 | 00:00:00 | 00:00:00 | |
| SP3BTT-10 | 2026-09-01 12:53:32 | 52.49318 | 21.91431 | 109° | 37km/h | 33480m | 7.1m/s | -33.5°C | 1.5% | 7.6hPa | 2.7V | 00:00:00 | 00:00:00 | 00:00:00 | |
| SP4MAZ | 2026-09-01 12:53:22 | 52.49302 | 21.91308 | 54° | 33km/h | 33415m | 5.3m/s | -34.1°C | 0.2% | 7.7hPa | 2.7V | 00:00:00 | 00:00:00 | 00:00:00 | |
| SP3WXH-11 | 2026-09-01 12:53:21 | 52.49299 | 21.91271 | 107° | 33km/h | 33392m | 7.5m/s | -34.4°C | 0.2% | 7.8hPa | 2.7V | 00:00:00 | 00:00:00 | 00:00:00 | |
| SONDE2-11 | 2026-09-01 12:53:13 | 52.49281 | 21.91109 | 47° | 40km/h | 33321m | 6.2m/s | -35.0°C | 0.2% | 7.8hPa | 2.7V | 00:00:00 | 00:00:00 | 00:00:00 | |
| SP3WXH-11 | 2026-09-01 12:52:50 | 52.49203 | 21.90843 | 76° | 33km/h | 33164m | 8.4m/s | -35.2°C | 0.2% | 8.1hPa | 2.7V | 00:00:00 | 00:00:00 | 00:00:00 | |
| SP3BTT-10 | 2026-09-01 12:52:47 | 52.49202 | 21.90822 | 90° | 20km/h | 33148m | 7.0m/s | -35.1°C | 1.6% | 8.0hPa | 2.7V | 00:00:00 | 00:00:00 | 00:00:00 | |
| SONDE2-11 | 2026-09-01 12:52:42 | 52.49181 | 21.90778 | 33° | 24km/h | 33090m | 4.8m/s | -35.6°C | 0.2% | 8.1hPa | 2.7V | 00:00:00 | 00:00:00 | 00:00:00 | |
| SP4MAZ | 2026-09-01 12:52:19 | 52.49164 | 21.90610 | 82° | 27km/h | 32945m | 6.4m/s | -36.3°C | 0.3% | 8.3hPa | 2.7V | 00:00:00 | 00:00:00 | 00:00:00 | |
| SONDE2-11 | 2026-09-01 12:52:10 | 52.49124 | 21.90517 | 57° | 24km/h | 32864m | 5.5m/s | -37.0°C | 0.3% | 8.4hPa | 2.7V | 00:00:00 | 00:00:00 | 00:00:00 | |
| OM5KV | 2026-09-01 12:52:02 | 52.49114 | 21.90463 | 69° | 27km/h | 32828m | 6.1m/s | 0°C | 0% | 0hPa | 2.7V | 00:00:00 | 00:00:00 | 00:00:00 | |
| SP3WXH-11 | 2026-09-01 12:51:48 | 52.49064 | 21.90347 | 54° | 29km/h | 32719m | 7.6m/s | -37.5°C | 0.3% | 8.6hPa | 2.7V | 00:00:00 | 00:00:00 | 00:00:00 | |
| SP3BTT-10 | 2026-09-01 12:51:46 | 52.49059 | 21.90339 | 37° | 13km/h | 32711m | 7.8m/s | -37.4°C | 1.9% | 8.5hPa | 2.7V | 00:00:00 | 00:00:00 | 00:00:00 | |
| SONDE2-11 | 2026-09-01 12:51:39 | 52.49021 | 21.90321 | 57° | 5km/h | 32663m | 6.9m/s | -37.5°C | 0.3% | 8.6hPa | 2.7V | 00:00:00 | 00:00:00 | 00:00:00 | |
| SP4MAZ | 2026-09-01 12:51:35 | 52.49022 | 21.90319 | 166° | 4km/h | 32641m | 5.8m/s | -37.6°C | 0.3% | 8.6hPa | 2.7V | 00:00:00 | 00:00:00 | 00:00:00 | |
| SP3WXH-11 | 2026-09-01 12:51:17 | 52.48990 | 21.90296 | 33° | 22km/h | 32500m | 6.4m/s | -37.7°C | 0.3% | 8.8hPa | 2.7V | 00:00:00 | 00:00:00 | 00:00:00 | |
| SP3BTT-10 | 2026-09-01 12:51:16 | 52.48990 | 21.90296 | 34° | 20km/h | 32500m | 6.4m/s | -37.7°C | 1.9% | 8.8hPa | 2.7V | 00:00:00 | 00:00:00 | 00:00:00 | |
| SP4MAZ | 2026-09-01 12:51:15 | 52.48990 | 21.90296 | 34° | 22km/h | 32500m | 6.4m/s | -37.7°C | 0.3% | 8.8hPa | 2.7V | 00:00:00 | 00:00:00 | 00:00:00 | |
| SONDE2-11 | 2026-09-01 12:51:08 | 52.48963 | 21.90278 | 90° | 15km/h | 32447m | 6.4m/s | -37.7°C | 0.3% | 8.9hPa | 2.7V | 00:00:00 | 00:00:00 | 00:00:00 | |
| SP3WXH-11 | 2026-09-01 12:50:46 | 52.48888 | 21.90163 | 35° | 26km/h | 32284m | 5.5m/s | -38.2°C | 0.3% | 9.1hPa | 2.7V | 00:00:00 | 00:00:00 | 00:00:00 | |
| SONDE2-11 | 2026-09-01 12:50:37 | 52.48873 | 21.90113 | 76° | 13km/h | 32224m | 8.2m/s | -38.2°C | 0.3% | 9.2hPa | 2.7V | 00:00:00 | 00:00:00 | 00:00:00 | |
| SQ9EZE-15 | 2026-09-01 12:50:29 | 52.48841 | 21.90065 | 45° | 33km/h | 32176m | 5.4m/s | -38.1°C | 0.3% | 9.2hPa | 2.7V | 00:00:00 | 00:00:00 | 00:00:00 | |
| SP4MAZ | 2026-09-01 12:50:25 | 52.48833 | 21.90039 | 118° | 13km/h | 32149m | 5.1m/s | -38.0°C | 0.3% | 9.3hPa | 2.7V | 00:00:00 | 00:00:00 | 00:00:00 | |
| SP3BTT-10 | 2026-09-01 12:50:16 | 52.48809 | 21.89982 | 38° | 15km/h | 32083m | 8.2m/s | -38.4°C | 1.9% | 9.3hPa | 2.7V | 00:00:00 | 00:00:00 | 00:00:00 | |
| SP3WXH-11 | 2026-09-01 12:50:15 | 52.48802 | 21.89967 | 62° | 22km/h | 32069m | 5.9m/s | -38.5°C | 0.3% | 9.4hPa | 2.7V | 00:00:00 | 00:00:00 | 00:00:00 | |
| SONDE2-11 | 2026-09-01 12:50:07 | 52.48798 | 21.89925 | 48° | 15km/h | 32013m | 5.8m/s | -38.8°C | 0.3% | 9.5hPa | 2.7V | 00:00:00 | 00:00:00 | 00:00:00 | |
| SP4MAZ | 2026-09-01 12:49:58 | 52.48773 | 21.89918 | 47° | 11km/h | 31961m | 6.5m/s | -39.3°C | 0.3% | 9.5hPa | 2.7V | 00:00:00 | 00:00:00 | 00:00:00 | |
| SP3BTT-10 | 2026-09-01 12:49:46 | 52.48767 | 21.89886 | 30° | 18km/h | 31871m | 8.1m/s | -39.8°C | 2.0% | 9.6hPa | 2.7V | 00:00:00 | 00:00:00 | 00:00:00 | |
| SP3WXH-11 | 2026-09-01 12:49:43 | 52.48763 | 21.89871 | 90° | 13km/h | 31850m | 5.8m/s | -39.9°C | 0.3% | 9.7hPa | 2.7V | 00:00:00 | 00:00:00 | 00:00:00 | |
| SP4MAZ | 2026-09-01 12:49:37 | 52.48767 | 21.89852 | 99° | 13km/h | 31817m | 7.9m/s | -40.0°C | 0.3% | 9.8hPa | 2.7V | 00:00:00 | 00:00:00 | 00:00:00 | |
| SONDE2-11 | 2026-09-01 12:49:35 | 52.48764 | 21.89832 | 56° | 16km/h | 31796m | 5.8m/s | -40.2°C | 0.4% | 9.8hPa | 2.7V | 00:00:00 | 00:00:00 | 00:00:00 | |
| SP4MAZ | 2026-09-01 12:49:17 | 52.48713 | 21.89742 | 5° | 24km/h | 31677m | 7.1m/s | -40.8°C | 0.4% | 9.9hPa | 2.7V | 00:00:00 | 00:00:00 | 00:00:00 | |
| SP3WXH-11 | 2026-09-01 12:49:12 | 52.48667 | 21.89733 | 27° | 29km/h | 31638m | 5.7m/s | -40.9°C | 0.4% | 10.0hPa | 2.7V | 00:00:00 | 00:00:00 | 00:00:00 | |
| SONDE2-11 | 2026-09-01 12:49:04 | 52.48641 | 21.89683 | 44° | 16km/h | 31585m | 7.4m/s | -41.2°C | 0.4% | 10.1hPa | 2.7V | 00:00:00 | 00:00:00 | 00:00:00 | |
| SP3BTT-10 | 2026-09-01 12:48:46 | 52.48565 | 21.89627 | 346° | 15km/h | 31461m | 5.7m/s | -41.8°C | 2.3% | 10.2hPa | 2.7V | 00:00:00 | 00:00:00 | 08:30:00 | |
| SP4MAZ | 2026-09-01 12:48:44 | 52.48558 | 21.89630 | 354° | 29km/h | 31455m | 7.0m/s | -41.9°C | 0.4% | 10.3hPa | 2.7V | 00:00:00 | 00:00:00 | 00:00:00 | |
| SP3WXH-11 | 2026-09-01 12:48:41 | 52.48541 | 21.89611 | 72° | 16km/h | 31430m | 7.7m/s | -42.0°C | 0.4% | 10.3hPa | 2.7V | 00:00:00 | 00:00:00 | 00:00:00 | |
| SONDE2-11 | 2026-09-01 12:48:33 | 52.48515 | 21.89590 | 340° | 20km/h | 31368m | 4.7m/s | -42.2°C | 0.4% | 10.4hPa | 2.7V | 00:00:00 | 00:00:00 | 00:00:00 | |
| SP4MAZ | 2026-09-01 12:48:24 | 52.48492 | 21.89571 | 115° | 7km/h | 31321m | 6.1m/s | -42.2°C | 0.4% | 10.5hPa | 2.7V | 00:00:00 | 00:00:00 | 00:00:00 | |
| SP3WXH-11 | 2026-09-01 12:48:10 | 52.48453 | 21.89541 | 64° | 5km/h | 31226m | 8.1m/s | -42.1°C | 0.4% | 10.6hPa | 2.7V | 00:00:00 | 00:00:00 | 00:00:00 | |
| SP4MAZ | 2026-09-01 12:48:01 | 52.48434 | 21.89560 | 320° | 13km/h | 31169m | 5.3m/s | -42.1°C | 0.4% | 10.7hPa | 2.7V | 00:00:00 | 00:00:00 | 00:00:00 | |
| SP3BTT-10 | 2026-09-01 12:47:45 | 52.48415 | 21.89558 | 121° | 16km/h | 31064m | 5.8m/s | -42.2°C | 2.4% | 10.8hPa | 2.7V | 00:00:00 | 00:00:00 | 00:00:00 | |
| SP3WXH-11 | 2026-09-01 12:47:40 | 52.48420 | 21.89529 | 177° | 5km/h | 31021m | 6.4m/s | -42.0°C | 0.4% | 11.0hPa | 2.7V | 00:00:00 | 00:00:00 | 00:00:00 | |
| SP4MAZ | 2026-09-01 12:47:32 | 52.48417 | 21.89527 | 95° | 7km/h | 30980m | 6.5m/s | -41.8°C | 0.4% | 11.0hPa | 2.7V | 00:00:00 | 00:00:00 | 00:00:00 | |
| SONDE2-11 | 2026-09-01 12:47:31 | 52.48422 | 21.89515 | 132° | 16km/h | 30959m | 5.3m/s | -41.6°C | 0.4% | -1.0hPa | 2.7V | 00:00:00 | 00:00:00 | 00:00:00 | |
| SQ9EZE-15 | 2026-09-01 12:47:15 | 52.48430 | 21.89441 | 134° | 26km/h | 30865m | 6.6m/s | 0°C | 0% | 11.2hPa | 2.7V | 00:00:00 | 00:00:00 | 00:00:00 | |
| SP4MAZ | 2026-09-01 12:47:12 | 52.48447 | 21.89400 | 110° | 29km/h | 30838m | 5.6m/s | -42.1°C | 0.4% | 11.3hPa | 2.7V | 00:00:00 | 00:00:00 | 00:00:00 | |
| SP3WXH-11 | 2026-09-01 12:47:08 | 52.48456 | 21.89371 | 151° | 11km/h | 30811m | 6.9m/s | -42.0°C | 0.4% | 11.3hPa | 2.7V | 00:00:00 | 00:00:00 | 00:00:00 | |
| SQ9EZE-15 | 2026-09-01 12:46:55 | 52.48471 | 21.89288 | 95° | 24km/h | 30729m | 4.6m/s | 0°C | 0% | 0hPa | 2.7V | 00:00:00 | 00:00:00 | 00:00:00 | |
| SP4MAZ | 2026-09-01 12:46:51 | 52.48479 | 21.89266 | 151° | 13km/h | 30702m | 5.2m/s | -41.8°C | 0.4% | 11.5hPa | 2.7V | 00:00:00 | 00:00:00 | 00:00:00 | |
| SP3BTT-10 | 2026-09-01 12:46:46 | 52.48488 | 21.89222 | 105° | 16km/h | 30663m | 7.8m/s | -41.7°C | 2.3% | 11.5hPa | 2.7V | 00:00:00 | 00:00:00 | 00:00:00 | |
| SP3WXH-11 | 2026-09-01 12:46:37 | 52.48500 | 21.89154 | 104° | 11km/h | 30601m | 7.4m/s | -41.5°C | 0.4% | 11.7hPa | 2.7V | 00:00:00 | 00:00:00 | 00:00:00 | |
| SP4MAZ | 2026-09-01 12:46:30 | 52.48500 | 21.89126 | 109° | 16km/h | 30551m | 8.1m/s | -41.6°C | 0.4% | 11.7hPa | 2.7V | 00:00:00 | 00:00:00 | 00:00:00 | |
| SP3BTT-10 | 2026-09-01 12:46:16 | 52.48484 | 21.89058 | 78° | 20km/h | 30451m | 7.5m/s | -41.8°C | 2.3% | 11.9hPa | 2.7V | 00:00:00 | 00:00:00 | 00:00:00 | |
| SP4MAZ | 2026-09-01 12:46:09 | 52.48479 | 21.89020 | 105° | 16km/h | 30409m | 8.6m/s | -41.8°C | 0.4% | 12.0hPa | 2.7V | 00:00:00 | 00:00:00 | 00:00:00 | |
| SP3WXH-11 | 2026-09-01 12:46:06 | 52.48479 | 21.89000 | 51° | 15km/h | 30378m | 7.9m/s | -41.8°C | 0.4% | 12.0hPa | 2.7V | 00:00:00 | 00:00:00 | 00:00:00 | |
| SONDE2-11 | 2026-09-01 12:45:58 | 52.48482 | 21.88927 | 106° | 7km/h | 30276m | 7.7m/s | -41.4°C | -1.0% | -1.0hPa | 2.7V | 00:00:00 | 00:00:00 | 00:00:00 | |
| SQ9EZE-15 | 2026-09-01 12:45:55 | 52.48474 | 21.88939 | 112° | 13km/h | 30307m | 7.8m/s | -41.5°C | 0.4% | 12.2hPa | 2.7V | 00:00:00 | 00:00:00 | 00:00:00 | |
| SP4MAZ | 2026-09-01 12:45:48 | 52.48479 | 21.88911 | 71° | 16km/h | 30256m | 6.7m/s | -41.5°C | 0.4% | 12.3hPa | 2.7V | 00:00:00 | 00:00:00 | 00:00:00 | |
| SP3WXH-11 | 2026-09-01 12:45:35 | 52.48502 | 21.88822 | 110° | 18km/h | 30157m | 6.8m/s | -42.1°C | 0.4% | 12.4hPa | 2.7V | 00:00:00 | 00:00:00 | 00:00:00 | |
| SONDE2-11 | 2026-09-01 12:45:26 | 52.48539 | 21.88710 | 127° | 26km/h | 30096m | 7.6m/s | -42.1°C | -1.0% | -1.0hPa | 2.7V | 00:00:00 | 00:00:00 | 00:00:00 | |
| SP4MAZ | 2026-09-01 12:45:18 | 52.48550 | 21.88668 | 94° | 18km/h | 30053m | 8.0m/s | -42.0°C | 0.4% | 12.6hPa | 2.7V | 00:00:00 | 00:00:00 | 00:00:00 | |
| SP3BTT-10 | 2026-09-01 12:45:13 | 52.48552 | 21.88595 | 93° | 27km/h | 30012m | 6.0m/s | -42.0°C | 2.3% | 12.7hPa | 2.7V | 00:00:00 | 00:00:00 | 00:00:00 | |
| SP3WXH-11 | 2026-09-01 12:45:04 | 52.48554 | 21.88509 | 73° | 22km/h | 29948m | 6.9m/s | -42.5°C | 0.4% | 12.8hPa | 2.7V | 00:00:00 | 00:00:00 | 00:00:00 | |
| SONDE2-11 | 2026-09-01 12:44:55 | 52.48549 | 21.88402 | 72° | 13km/h | 29894m | 5.8m/s | -42.8°C | -1.0% | -1.0hPa | 2.7V | 00:00:00 | 00:00:00 | 00:00:00 | |
| SP4MAZ | 2026-09-01 12:44:45 | 52.48517 | 21.88318 | 75° | 33km/h | 29831m | 5.4m/s | -42.9°C | 0.4% | 13.0hPa | 2.7V | 00:00:00 | 00:00:00 | 00:00:00 | |
| SP3WXH-11 | 2026-09-01 12:44:33 | 52.48491 | 21.88191 | 81° | 31km/h | 29751m | 6.4m/s | -43.0°C | 0.4% | 13.2hPa | 2.7V | 00:00:00 | 00:00:00 | 00:00:00 | |
| SP3BTT-10 | 2026-09-01 12:44:28 | 52.48486 | 21.88127 | 95° | 16km/h | 29715m | 6.3m/s | -42.9°C | 2.4% | 13.2hPa | 2.7V | 00:00:00 | 00:00:00 | 00:00:00 | |
| SONDE2-11 | 2026-09-01 12:44:24 | 52.48478 | 21.88082 | 71° | 22km/h | 29668m | 6.0m/s | 0°C | -1.0% | -1.0hPa | 2.7V | 00:00:00 | 00:00:00 | 00:00:00 | |
| SP3WXH-11 | 2026-09-01 12:44:02 | 52.48442 | 21.87901 | 68° | 29km/h | 29543m | 6.9m/s | -43.7°C | 0.5% | 13.6hPa | 2.7V | 00:00:00 | 00:00:00 | 00:00:00 | |
| SP4MAZ | 2026-09-01 12:44:01 | 52.48442 | 21.87901 | 69° | 29km/h | 29544m | 6.9m/s | -43.7°C | 0.5% | 13.6hPa | 2.7V | 00:00:00 | 00:00:00 | 00:00:00 | |
| SP4MAZ | 2026-09-01 12:43:41 | 52.48419 | 21.87790 | 75° | 9km/h | 29416m | 6.5m/s | -44.3°C | 0.5% | 13.9hPa | 2.7V | 00:00:00 | 00:00:00 | 00:00:00 | |
| SP3WXH-11 | 2026-09-01 12:43:31 | 52.48401 | 21.87732 | 180° | 13km/h | 29346m | 6.2m/s | -44.7°C | 0.5% | 14.0hPa | 2.7V | 00:00:00 | 00:00:00 | 00:00:00 | |
| SP3BTT-10 | 2026-09-01 12:43:28 | 52.48410 | 21.87731 | 134° | 22km/h | 29328m | 6.7m/s | -44.6°C | 2.6% | 14.0hPa | 2.7V | 00:00:00 | 00:00:00 | 00:00:00 | |
| SQ9EZE-15 | 2026-09-01 12:43:16 | 52.48419 | 21.87666 | 171° | 22km/h | 29254m | 6.0m/s | 0°C | 0% | 0hPa | 2.6V | 00:00:00 | 00:00:00 | 00:00:00 | |
| SP4MAZ | 2026-09-01 12:43:11 | 52.48442 | 21.87658 | 151° | 20km/h | 29224m | 7.1m/s | -44.8°C | 0.5% | 14.3hPa | 2.6V | 00:00:00 | 00:00:00 | 00:00:00 | |
| SP3WXH-11 | 2026-09-01 12:43:00 | 52.48492 | 21.87600 | 148° | 18km/h | 29147m | 5.1m/s | -44.8°C | 0.5% | 14.4hPa | 2.6V | 00:00:00 | 00:00:00 | 00:00:00 | |
| SP4MAZ | 2026-09-01 12:42:51 | 52.48526 | 21.87548 | 126° | 20km/h | 29097m | 5.8m/s | -44.9°C | 0.5% | 14.6hPa | 2.6V | 00:00:00 | 00:00:00 | 00:00:00 | |
| SP3BTT-10 | 2026-09-01 12:42:44 | 52.48556 | 21.87477 | 113° | 33km/h | 29043m | 8.3m/s | -45.1°C | 2.7% | 14.6hPa | 2.6V | 00:00:00 | 00:00:00 | 00:00:00 | |
| SP4MAZ | 2026-09-01 12:42:28 | 52.48595 | 21.87330 | 116° | 27km/h | 28944m | 6.6m/s | -45.3°C | 0.5% | 14.9hPa | 2.6V | 00:00:00 | 00:00:00 | 00:00:00 | |
| SONDE2-11 | 2026-09-01 12:42:20 | 52.48606 | 21.87159 | 102° | 29km/h | 28849m | 6.0m/s | 0°C | -1.0% | -1.0hPa | 2.6V | 00:00:00 | 00:00:00 | 00:00:00 | |
| SP3WXH-11 | 2026-09-01 12:41:58 | 52.48606 | 21.86934 | 74° | 29km/h | 28730m | 6.0m/s | -44.8°C | 0.5% | 15.4hPa | 2.6V | 00:00:00 | 00:00:00 | 00:00:00 | |
| SP4MAZ | 2026-09-01 12:41:37 | 52.48575 | 21.86627 | 73° | 37km/h | 28594m | 8.5m/s | -44.8°C | 0.5% | 15.7hPa | 2.6V | 00:00:00 | 00:00:00 | 00:00:00 | |
| SP3BTT-10 | 2026-09-01 12:41:27 | 52.48539 | 21.86483 | 69° | 18km/h | 28517m | 5.6m/s | -44.4°C | 2.5% | 15.8hPa | 2.6V | 00:00:00 | 00:00:00 | 00:00:00 | |
| SP4MAZ | 2026-09-01 12:41:15 | 52.48503 | 21.86356 | 58° | 22km/h | 28447m | 6.1m/s | -44.5°C | 0.5% | 16.1hPa | 2.6V | 00:00:00 | 00:00:00 | 00:00:00 | |
| SP3WXH-11 | 2026-09-01 12:40:56 | 52.48429 | 21.86190 | 36° | 15km/h | 28297m | 5.9m/s | -44.5°C | 0.5% | 16.4hPa | 2.6V | 00:00:00 | 00:00:00 | 00:00:00 | |
| SP4MAZ | 2026-09-01 12:40:55 | 52.48432 | 21.86195 | 53° | 18km/h | 28304m | 7.5m/s | -44.5°C | 0.5% | 16.4hPa | 2.6V | 00:00:00 | 00:00:00 | 00:00:00 | |
| SP3BTT-10 | 2026-09-01 12:40:42 | 52.48397 | 21.86172 | 24° | 15km/h | 28214m | 7.4m/s | -44.8°C | 2.5% | 16.6hPa | 2.6V | 00:00:00 | 00:00:00 | 08:30:00 | |
| SP4MAZ | 2026-09-01 12:40:35 | 52.48386 | 21.86167 | 358° | 9km/h | 28174m | 7.0m/s | -45.0°C | 0.5% | 16.7hPa | 0V | 00:00:00 | 00:00:00 | 00:00:00 | |
| SP3WXH-11 | 2026-09-01 12:40:25 | 52.48385 | 21.86167 | 267° | 4km/h | 28092m | 7.7m/s | -45.8°C | 0.5% | 16.9hPa | 0V | 00:00:00 | 00:00:00 | 00:00:00 | |
| SQ9EZE-15 | 2026-09-01 12:40:09 | 52.48381 | 21.86140 | 113° | 9km/h | 28004m | 6.0m/s | 0°C | 0% | 0hPa | 0V | 00:00:00 | 00:00:00 | 00:00:00 | |
| SP4MAZ | 2026-09-01 12:40:05 | 52.48385 | 21.86121 | 122° | 15km/h | 27978m | 8.2m/s | -46.7°C | 0.6% | 17.2hPa | 0V | 00:00:00 | 00:00:00 | 00:00:00 | |
| SP3WXH-11 | 2026-09-01 12:39:54 | 52.48392 | 21.86033 | 79° | 18km/h | 27898m | 5.8m/s | -47.4°C | 0.6% | 17.4hPa | 0V | 00:00:00 | 00:00:00 | 00:00:00 | |
| SP4MAZ | 2026-09-01 12:39:44 | 52.48389 | 21.85975 | 84° | 16km/h | 27850m | 8.7m/s | -47.6°C | 0.6% | 17.6hPa | 0V | 00:00:00 | 00:00:00 | 00:00:00 | |
| SP3BTT-10 | 2026-09-01 12:39:41 | 52.48386 | 21.85950 | 73° | 22km/h | 27825m | 5.3m/s | -47.4°C | 3.0% | 17.6hPa | 0V | 00:00:00 | 00:00:00 | 00:00:00 | |
| SP4MAZ | 2026-09-01 12:39:24 | 52.48354 | 21.85846 | 38° | 13km/h | 27711m | 8.0m/s | -47.2°C | 0.6% | 17.9hPa | 0V | 00:00:00 | 00:00:00 | 00:00:00 | |
| SP3WXH-11 | 2026-09-01 12:39:23 | 52.48347 | 21.85833 | 56° | 18km/h | 27692m | 8.1m/s | -47.3°C | 0.6% | 18.0hPa | 0V | 00:00:00 | 00:00:00 | 00:00:00 | |
| SP3BTT-10 | 2026-09-01 12:39:11 | 52.48303 | 21.85754 | 59° | 15km/h | 27608m | 7.8m/s | 0°C | 0% | 0hPa | 0V | 00:00:00 | 00:00:00 | 00:00:00 | |
| SP4MAZ | 2026-09-01 12:39:02 | 52.48292 | 21.85703 | 33° | 15km/h | 27555m | 6.5m/s | -47.1°C | 0.6% | 18.4hPa | 0V | 00:00:00 | 00:00:00 | 00:00:00 | |
| SP4MAZ | 2026-09-01 12:38:37 | 52.48228 | 21.85662 | 24° | 11km/h | 27384m | 7.9m/s | -47.4°C | 0.6% | 18.8hPa | 0V | 00:00:00 | 00:00:00 | 00:00:00 | |
| SP3WXH-11 | 2026-09-01 12:38:21 | 52.48206 | 21.85682 | 61° | 4km/h | 27260m | 5.6m/s | -47.1°C | 0.6% | 19.1hPa | 0V | 00:00:00 | 00:00:00 | 00:00:00 | |
| SQ9EZE-15 | 2026-09-01 12:38:09 | 52.48200 | 21.85715 | 44° | 5km/h | 27199m | 7.3m/s | 0°C | 0% | 0hPa | 0V | 00:00:00 | 00:00:00 | 00:00:00 | |
| SP4MAZ | 2026-09-01 12:38:05 | 52.48198 | 21.85714 | 304° | 7km/h | 27171m | 5.8m/s | -47.1°C | 0.6% | 19.4hPa | 0V | 00:00:00 | 00:00:00 | 00:00:00 | |
| SP3WXH-11 | 2026-09-01 12:37:50 | 52.48202 | 21.85742 | 191° | 7km/h | 27061m | 8.0m/s | -46.9°C | 0.6% | 19.8hPa | 0V | 00:00:00 | 00:00:00 | 00:00:00 | |
| SP4MAZ | 2026-09-01 12:37:43 | 52.48201 | 21.85763 | 269° | 13km/h | 27025m | 5.0m/s | -46.8°C | 0.6% | 19.9hPa | 0V | 00:00:00 | 00:00:00 | 00:00:00 | |
| SP3WXH-11 | 2026-09-01 12:37:18 | 52.48252 | 21.85759 | 177° | 7km/h | 26848m | 8.3m/s | -47.2°C | 0.6% | 20.4hPa | 0V | 00:00:00 | 00:00:00 | 00:00:00 | |
| SP3BTT-10 | 2026-09-01 12:37:11 | 52.48256 | 21.85749 | 118° | 16km/h | 26788m | 7.6m/s | 0°C | 0% | 0hPa | 0V | 00:00:00 | 00:00:00 | 00:00:00 | |
| SP4MAZ | 2026-09-01 12:37:09 | 52.48258 | 21.85744 | 135° | 16km/h | 26779m | 7.0m/s | -47.5°C | 0.6% | 20.5hPa | 0V | 00:00:00 | 00:00:00 | 00:00:00 | |
| SP3WXH-11 | 2026-09-01 12:36:47 | 52.48268 | 21.85617 | 59° | 20km/h | 26648m | 4.4m/s | -48.0°C | 0.6% | 21.0hPa | 0V | 00:00:00 | 00:00:00 | 00:00:00 | |
| SQ9EZE-15 | 2026-09-01 12:36:36 | 52.48255 | 21.85553 | 103° | 13km/h | 26598m | 5.3m/s | -48.3°C | 0% | 0hPa | 0V | 00:00:00 | 00:00:00 | 00:00:00 | |
| SP4MAZ | 2026-09-01 12:36:20 | 52.48216 | 21.85440 | 54° | 24km/h | 26498m | 6.3m/s | -49.1°C | 0.7% | 21.5hPa | 0V | 00:00:00 | 00:00:00 | 00:00:00 | |
| SQ9EZE-15 | 2026-09-01 12:36:16 | 52.48204 | 21.85418 | 41° | 11km/h | 26473m | 5.8m/s | 0°C | 0% | 0hPa | 0V | 00:00:00 | 00:00:00 | 00:00:00 | |
| SP3BTT-10 | 2026-09-01 12:36:10 | 52.48184 | 21.85405 | 360° | 15km/h | 26435m | 6.3m/s | 0°C | 0% | 0hPa | 0V | 00:00:00 | 00:00:00 | 00:00:00 | |
| SP3WXH-11 | 2026-09-01 12:35:45 | 52.48211 | 21.85352 | 163° | 11km/h | 26279m | 5.6m/s | -49.9°C | 0.7% | 22.3hPa | 0V | 00:00:00 | 00:00:00 | 00:00:00 | |
| SQ9EZE-15 | 2026-09-01 12:35:16 | 52.48248 | 21.85210 | 76° | 15km/h | 26101m | 6.4m/s | 0°C | 0% | 0hPa | 0V | 00:00:00 | 00:00:00 | 00:00:00 | |
| SP3WXH-11 | 2026-09-01 12:35:15 | 52.48243 | 21.85191 | 58° | 18km/h | 26081m | 4.7m/s | -50.1°C | 0.7% | 23.0hPa | 0V | 00:00:00 | 00:00:00 | 00:00:00 | |
| SP3BTT-10 | 2026-09-01 12:35:12 | 52.48239 | 21.85181 | 68° | 13km/h | 26068m | 7.2m/s | 0°C | 0% | 0hPa | 0V | 00:00:00 | 00:00:00 | 00:00:00 | |
| SQ9EZE-15 | 2026-09-01 12:34:56 | 52.48245 | 21.85099 | 105° | 16km/h | 25965m | 7.5m/s | 0°C | 0% | 0hPa | 0V | 00:00:00 | 00:00:00 | 00:00:00 | |
| SP4MAZ | 2026-09-01 12:34:53 | 52.48251 | 21.85071 | 123° | 18km/h | 25936m | 5.4m/s | -50.2°C | 0.7% | 23.4hPa | 0V | 00:00:00 | 00:00:00 | 00:00:00 | |
| SP3WXH-11 | 2026-09-01 12:34:43 | 52.48238 | 21.85009 | 62° | 16km/h | 25872m | 5.7m/s | -50.3°C | 0.7% | 23.6hPa | 0V | 00:00:00 | 00:00:00 | 00:00:00 | |
| SP4MAZ | 2026-09-01 12:34:31 | 52.48219 | 21.84948 | 53° | 20km/h | 25797m | 6.3m/s | -50.2°C | 0.7% | 23.9hPa | 0V | 00:00:00 | 00:00:00 | 00:00:00 | |
| SQ9EZE-15 | 2026-09-01 12:34:15 | 52.48203 | 21.84855 | 62° | 18km/h | 25704m | 7.7m/s | 0°C | 0% | 0hPa | 0V | 00:00:00 | 00:00:00 | 00:00:00 | |
| SP3WXH-11 | 2026-09-01 12:34:12 | 52.48198 | 21.84823 | 70° | 22km/h | 25679m | 6.3m/s | -50.0°C | 0.7% | 24.4hPa | 0V | 00:00:00 | 00:00:00 | 00:00:00 | |
| SP4MAZ | 2026-09-01 12:34:10 | 52.48195 | 21.84815 | 64° | 20km/h | 25673m | 4.6m/s | -50.0°C | 0.7% | 24.4hPa | 0V | 00:00:00 | 00:00:00 | 00:00:00 | |
| SP3BTT-10 | 2026-09-01 12:33:55 | 52.48147 | 21.84754 | 6° | 13km/h | 25572m | 6.3m/s | 0°C | 0% | 0hPa | 0V | 00:00:00 | 00:00:00 | 00:00:00 | |
| SP4MAZ | 2026-09-01 12:33:49 | 52.48118 | 21.84759 | 346° | 22km/h | 25536m | 4.8m/s | -50.5°C | 0.7% | 24.9hPa | 0V | 00:00:00 | 00:00:00 | 00:00:00 | |
| SP4MAZ | 2026-09-01 12:33:28 | 52.48044 | 21.84737 | 21° | 16km/h | 25405m | 5.1m/s | -50.8°C | 0.7% | 25.4hPa | 0V | 00:00:00 | 00:00:00 | 00:00:00 | |
| SQ9EZE-15 | 2026-09-01 12:33:14 | 52.47999 | 21.84789 | 317° | 24km/h | 25323m | 5.3m/s | -50.9°C | 0.7% | 25.7hPa | 0V | 00:00:00 | 00:00:00 | 00:00:00 | |
| SP3WXH-11 | 2026-09-01 12:33:10 | 52.47982 | 21.84828 | 309° | 18km/h | 25290m | 5.6m/s | -51.0°C | 0.8% | 25.8hPa | 0V | 00:00:00 | 00:00:00 | 00:00:00 | |
| SP3BTT-10 | 2026-09-01 12:32:54 | 52.47976 | 21.84901 | 262° | 15km/h | 25192m | 5.5m/s | 0°C | 0% | 0hPa | 0V | 00:00:00 | 00:00:00 | 00:00:00 | |
| SP4MAZ | 2026-09-01 12:32:51 | 52.47977 | 21.84912 | 265° | 13km/h | 25179m | 6.3m/s | -50.8°C | 0.8% | 26.3hPa | 0V | 00:00:00 | 00:00:00 | 00:00:00 | |
| SP3WXH-11 | 2026-09-01 12:32:39 | 52.47993 | 21.84972 | 272° | 7km/h | 25097m | 5.2m/s | -50.8°C | 0.8% | 26.6hPa | 0V | 00:00:00 | 00:00:00 | 00:00:00 | |
| SP4MAZ | 2026-09-01 12:32:30 | 52.48014 | 21.84995 | 181° | 16km/h | 25046m | 7.3m/s | -50.8°C | 0.8% | 26.9hPa | 0V | 00:00:00 | 00:00:00 | 00:00:00 | |
| SP3BTT-10 | 2026-09-01 12:32:15 | 52.48039 | 21.85050 | 218° | 11km/h | 24947m | 5.8m/s | 0°C | 0% | 0hPa | 0V | 00:00:00 | 00:00:00 | 00:00:00 | |
| SP4MAZ | 2026-09-01 12:32:10 | 52.48049 | 21.85062 | 247° | 9km/h | 24917m | 6.8m/s | -50.8°C | 0.7% | 27.4hPa | 0V | 00:00:00 | 00:00:00 | 00:00:00 | |
| SP3WXH-11 | 2026-09-01 12:32:08 | 52.48049 | 21.85070 | 291° | 11km/h | 24904m | 6.2m/s | -51.0°C | 0.7% | 27.4hPa | 0V | 00:00:00 | 00:00:00 | 00:00:00 | |
| SQ9EZE-15 | 2026-09-01 12:31:51 | 52.48084 | 21.85145 | 220° | 9km/h | 24802m | 5.4m/s | -51.4°C | 0.8% | 27.9hPa | 0V | 00:00:00 | 00:00:00 | 00:00:00 | |
| SP4MAZ | 2026-09-01 12:31:46 | 52.48100 | 21.85149 | 173° | 15km/h | 24762m | 6.2m/s | -51.5°C | 0.8% | 28.0hPa | 0V | 00:00:00 | 00:00:00 | 00:00:00 | |
| SP3WXH-11 | 2026-09-01 12:31:37 | 52.48123 | 21.85122 | 133° | 11km/h | 24699m | 6.4m/s | -52.1°C | 0.8% | 28.3hPa | 0V | 00:00:00 | 00:00:00 | 00:00:00 | |
| SP4MAZ | 2026-09-01 12:31:16 | 52.48151 | 21.85069 | 129° | 9km/h | 24581m | 5.6m/s | -51.7°C | 0.8% | 28.8hPa | 0V | 00:00:00 | 00:00:00 | 00:00:00 | |
| SP3WXH-11 | 2026-09-01 12:31:06 | 52.48138 | 21.85045 | 66° | 2km/h | 24519m | 4.6m/s | -51.8°C | 0.8% | 29.1hPa | 0V | 00:00:00 | 00:00:00 | 00:00:00 | |
| SQ9EZE-15 | 2026-09-01 12:31:04 | 52.48139 | 21.85044 | 120° | 5km/h | 24513m | 7.2m/s | -51.8°C | 0.8% | 29.1hPa | 0V | 00:00:00 | 00:00:00 | 00:00:00 | |
| SP4MAZ | 2026-09-01 12:30:55 | 52.48154 | 21.85049 | 287° | 9km/h | 24448m | 5.3m/s | -51.8°C | 0.8% | 29.4hPa | 0V | 00:00:00 | 00:00:00 | 00:00:00 | |
| SP3WXH-11 | 2026-09-01 12:30:35 | 52.48175 | 21.85028 | 142° | 18km/h | 24315m | 4.7m/s | -51.6°C | 0.8% | 30.1hPa | 0V | 00:00:00 | 00:00:00 | 00:00:00 | |
| SP4MAZ | 2026-09-01 12:30:30 | 52.48185 | 21.85020 | 168° | 9km/h | 24297m | 5.3m/s | -51.6°C | 0.9% | 30.1hPa | 0V | 00:00:00 | 00:00:00 | 00:00:00 | |
| SP3WXH-11 | 2026-09-01 12:30:04 | 52.48213 | 21.84930 | 67° | 18km/h | 24126m | 5.6m/s | -51.3°C | 0.8% | 30.9hPa | 0V | 00:00:00 | 00:00:00 | 00:00:00 | |
| SP4MAZ | 2026-09-01 12:29:45 | 52.48214 | 21.84829 | 99° | 13km/h | 24016m | 6.5m/s | -50.9°C | 0.8% | 31.5hPa | 0V | 00:00:00 | 00:00:00 | 00:00:00 | |
| SP3WXH-11 | 2026-09-01 12:29:33 | 52.48229 | 21.84755 | 113° | 20km/h | 23937m | 6.5m/s | -51.0°C | 0.8% | 31.9hPa | 0V | 00:00:00 | 00:00:00 | 00:00:00 | |
| SP4MAZ | 2026-09-01 12:29:24 | 52.48244 | 21.84711 | 99° | 15km/h | 23894m | 5.3m/s | -50.9°C | 0.8% | 32.0hPa | 0V | 00:00:00 | 00:00:00 | 00:00:00 | |
| SP3WXH-11 | 2026-09-01 12:29:02 | 52.48210 | 21.84566 | 53° | 11km/h | 23757m | 6.1m/s | -51.5°C | 0.8% | 32.8hPa | 0V | 00:00:00 | 00:00:00 | 00:00:00 | |
| SP4MAZ | 2026-09-01 12:29:00 | 52.48210 | 21.84566 | 55° | 11km/h | 23757m | 6.1m/s | -51.5°C | 0.8% | 32.7hPa | 0V | 00:00:00 | 00:00:00 | 00:00:00 | |
| SP4MAZ | 2026-09-01 12:28:32 | 52.48198 | 21.84514 | 121° | 7km/h | 23596m | 6.2m/s | -51.7°C | 0.8% | 33.5hPa | 0V | 00:00:00 | 00:00:00 | 00:00:00 | |
| SP3WXH-11 | 2026-09-01 12:28:31 | 52.48202 | 21.84510 | 124° | 4km/h | 23578m | 6.4m/s | -51.7°C | 0.8% | 33.7hPa | 0V | 00:00:00 | 00:00:00 | 00:00:00 | |
| SP4MAZ | 2026-09-01 12:28:11 | 52.48200 | 21.84505 | 101° | 4km/h | 23480m | 6.5m/s | -52.4°C | 0.9% | 34.2hPa | 0V | 00:00:00 | 00:00:00 | 00:00:00 | |
| SP3WXH-11 | 2026-09-01 12:28:00 | 52.48180 | 21.84462 | 352° | 7km/h | 23407m | 6.2m/s | -52.4°C | 0.9% | 34.6hPa | 0V | 00:00:00 | 00:00:00 | 00:00:00 | |
| SP4MAZ | 2026-09-01 12:27:49 | 52.48171 | 21.84443 | 104° | 13km/h | 23350m | 5.0m/s | -52.9°C | 0.9% | 34.9hPa | 0V | 00:00:00 | 00:00:00 | 00:00:00 | |
| SP3WXH-11 | 2026-09-01 12:27:28 | 52.48175 | 21.84416 | 15° | 2km/h | 23236m | 4.7m/s | -53.4°C | 0.9% | 35.5hPa | 0V | 00:00:00 | 00:00:00 | 00:00:00 | |
| SP4MAZ | 2026-09-01 12:27:17 | 52.48190 | 21.84420 | 105° | 4km/h | 23176m | 3.8m/s | -53.3°C | 0.9% | 35.9hPa | 0V | 00:00:00 | 00:00:00 | 00:00:00 | |
| SP3WXH-11 | 2026-09-01 12:26:58 | 52.48216 | 21.84376 | 125° | 13km/h | 23041m | 6.0m/s | -53.0°C | 0.9% | 36.5hPa | 0V | 00:00:00 | 00:00:00 | 00:00:00 | |
| SP4MAZ | 2026-09-01 12:26:56 | 52.48216 | 21.84376 | 127° | 13km/h | 23041m | 6.0m/s | -53.0°C | 0.9% | 36.5hPa | 0V | 00:00:00 | 00:00:00 | 00:00:00 | |
| SP4MAZ | 2026-09-01 12:26:34 | 52.48238 | 21.84230 | 77° | 15km/h | 22917m | 7.0m/s | -53.1°C | 0.9% | 37.3hPa | 0V | 00:00:00 | 00:00:00 | 00:00:00 | |
| SP3WXH-11 | 2026-09-01 12:26:26 | 52.48226 | 21.84177 | 81° | 27km/h | 22870m | 4.9m/s | -53.1°C | 0.9% | 37.5hPa | 0V | 00:00:00 | 00:00:00 | 00:00:00 | |
| SP4MAZ | 2026-09-01 12:26:13 | 52.48195 | 21.84042 | 61° | 33km/h | 22797m | 6.4m/s | -53.9°C | 1.0% | 38.0hPa | 0V | 00:00:00 | 00:00:00 | 00:00:00 | |
| SP3WXH-11 | 2026-09-01 12:25:56 | 52.48108 | 21.83921 | 29° | 22km/h | 22692m | 5.3m/s | -53.9°C | 1.0% | 38.6hPa | 0V | 00:00:00 | 00:00:00 | 00:00:00 | |
| SP4MAZ | 2026-09-01 12:25:43 | 52.48058 | 21.83912 | 25° | 16km/h | 22630m | 7.2m/s | -54.1°C | 1.0% | 39.0hPa | 0V | 00:00:00 | 00:00:00 | 00:00:00 | |
| SP3WXH-11 | 2026-09-01 12:25:25 | 52.47999 | 21.83919 | 0° | 15km/h | 22516m | 4.5m/s | -54.0°C | 1.0% | 39.7hPa | 0V | 00:00:00 | 00:00:00 | 00:00:00 | |
| SP4MAZ | 2026-09-01 12:25:22 | 52.47995 | 21.83918 | 11° | 16km/h | 22511m | 4.1m/s | -53.9°C | 1.0% | 39.7hPa | 0V | 00:00:00 | 00:00:00 | 00:00:00 | |
| SP4MAZ | 2026-09-01 12:25:01 | 52.47990 | 21.83957 | 184° | 9km/h | 22386m | 6.0m/s | -53.9°C | 1.0% | 40.5hPa | 0V | 00:00:00 | 00:00:00 | 00:00:00 | |
| SP3WXH-11 | 2026-09-01 12:24:53 | 52.48012 | 21.83965 | 238° | 5km/h | 22334m | 7.3m/s | -53.7°C | 1.0% | 40.8hPa | 0V | 00:00:00 | 00:00:00 | 00:00:00 | |
| SP4MAZ | 2026-09-01 12:24:28 | 52.48056 | 21.83934 | 131° | 7km/h | 22183m | 5.7m/s | -53.0°C | 0.9% | 41.8hPa | 0V | 00:00:00 | 00:00:00 | 00:00:00 | |
| SP3WXH-11 | 2026-09-01 12:24:22 | 52.48062 | 21.83928 | 132° | 4km/h | 22146m | 7.0m/s | -53.0°C | 1.0% | 42.0hPa | 0V | 00:00:00 | 00:00:00 | 00:00:00 | |
| SP4MAZ | 2026-09-01 12:24:04 | 52.48072 | 21.83827 | 87° | 13km/h | 22048m | 5.2m/s | -52.2°C | 0.9% | 42.7hPa | 0V | 00:00:00 | 00:00:00 | 00:00:00 | |
| SP3WXH-11 | 2026-09-01 12:23:51 | 52.48073 | 21.83781 | 136° | 11km/h | 21962m | 5.5m/s | -51.6°C | 0.9% | 43.3hPa | 0V | 00:00:00 | 00:00:00 | 00:00:00 | |
| SP4MAZ | 2026-09-01 12:23:44 | 52.48079 | 21.83756 | 120° | 4km/h | 21928m | 5.3m/s | -51.4°C | 0.9% | 43.5hPa | 0V | 00:00:00 | 00:00:00 | 00:00:00 | |
| SP3WXH-11 | 2026-09-01 12:23:20 | 52.48061 | 21.83726 | 130° | 2km/h | 21785m | 6.0m/s | -51.9°C | 0.9% | 44.4hPa | 0V | 00:00:00 | 00:00:00 | 00:00:00 | |
| SP4MAZ | 2026-09-01 12:23:13 | 52.48049 | 21.83727 | 356° | 13km/h | 21750m | 4.7m/s | -51.7°C | 0.9% | 44.7hPa | 0V | 00:00:00 | 00:00:00 | 00:00:00 | |
| SP3WXH-11 | 2026-09-01 12:22:49 | 52.47981 | 21.83691 | 47° | 11km/h | 21609m | 6.0m/s | -51.7°C | 0.9% | 45.7hPa | 0V | 00:00:00 | 00:00:00 | 00:00:00 | |
| SP4MAZ | 2026-09-01 12:22:30 | 52.47933 | 21.83638 | 38° | 13km/h | 21502m | 5.7m/s | -52.0°C | 0.9% | 46.4hPa | 0V | 00:00:00 | 00:00:00 | 00:00:00 | |
| SP3WXH-11 | 2026-09-01 12:22:18 | 52.47898 | 21.83597 | 24° | 9km/h | 21433m | 5.1m/s | -52.2°C | 0.9% | 46.9hPa | 0V | 00:00:00 | 00:00:00 | 00:00:00 | |
| SP4MAZ | 2026-09-01 12:22:10 | 52.47898 | 21.83595 | 84° | 5km/h | 21386m | 5.1m/s | -52.0°C | 0.9% | 47.3hPa | 0V | 00:00:00 | 00:00:00 | 00:00:00 | |
| SP3WXH-11 | 2026-09-01 12:21:47 | 52.47844 | 21.83507 | 58° | 15km/h | 21256m | 5.3m/s | -52.1°C | 0.9% | 48.2hPa | 0V | 00:00:00 | 00:00:00 | 00:00:00 | |
| SP4MAZ | 2026-09-01 12:21:20 | 52.47813 | 21.83477 | 179° | 2km/h | 21105m | 5.6m/s | -51.9°C | 0.9% | 49.3hPa | 0V | 00:00:00 | 00:00:00 | 00:00:00 | |
| SP3WXH-11 | 2026-09-01 12:21:16 | 52.47816 | 21.83480 | 0° | 2km/h | 21083m | 5.9m/s | -51.9°C | 0.9% | 49.5hPa | 0V | 00:00:00 | 00:00:00 | 00:00:00 | |
| SP3WXH-11 | 2026-09-01 12:20:45 | 52.47788 | 21.83442 | 13° | 5km/h | 20907m | 6.7m/s | -51.2°C | 0.8% | 50.9hPa | 0V | 00:00:00 | 00:00:00 | 00:00:00 | |
| SQ9EZE-15 | 2026-09-01 12:20:43 | 52.47788 | 21.83442 | 15° | 5km/h | 20907m | 6.7m/s | -51.2°C | 0.8% | 50.9hPa | 0V | 00:00:00 | 00:00:00 | 00:00:00 | |
| SP4MAZ | 2026-09-01 12:20:34 | 52.47786 | 21.83431 | 147° | 9km/h | 20857m | 6.5m/s | -50.9°C | 0.9% | 51.3hPa | 0V | 00:00:00 | 00:00:00 | 00:00:00 | |
| SP4MAZ | 2026-09-01 12:20:14 | 52.47819 | 21.83364 | 101° | 9km/h | 20729m | 5.4m/s | -50.9°C | 0.8% | 52.3hPa | 0V | 00:00:00 | 00:00:00 | 00:00:00 | |
| SP4MAZ | 2026-09-01 12:19:53 | 52.47850 | 21.83206 | 92° | 20km/h | 20616m | 5.4m/s | -51.4°C | 0.9% | 53.2hPa | 0V | 00:00:00 | 00:00:00 | 00:00:00 | |
| SP3WXH-11 | 2026-09-01 12:19:43 | 52.47846 | 21.83084 | 89° | 20km/h | 20546m | 5.5m/s | -51.4°C | 0.9% | 53.8hPa | 0V | 00:00:00 | 00:00:00 | 00:00:00 | |
| SP4MAZ | 2026-09-01 12:19:32 | 52.47831 | 21.83006 | 54° | 26km/h | 20494m | 5.8m/s | -51.7°C | 0.9% | 54.2hPa | 0V | 00:00:00 | 00:00:00 | 00:00:00 | |
| SP4MAZ | 2026-09-01 12:19:11 | 52.47768 | 21.82856 | 64° | 22km/h | 20371m | 5.2m/s | -51.1°C | 0.9% | 55.3hPa | 0V | 00:00:00 | 00:00:00 | 00:00:00 | |
| SQ9EZE-15 | 2026-09-01 12:19:00 | 52.47746 | 21.82783 | 73° | 20km/h | 20304m | 4.9m/s | -51.2°C | 0.9% | 55.9hPa | 0V | 00:00:00 | 00:00:00 | 00:00:00 | |
| SP4MAZ | 2026-09-01 12:18:50 | 52.47713 | 21.82684 | 74° | 31km/h | 20245m | 6.9m/s | -51.2°C | 0.9% | 56.4hPa | 0V | 00:00:00 | 00:00:00 | 00:00:00 | |
| SP3WXH-11 | 2026-09-01 12:18:41 | 52.47704 | 21.82570 | 80° | 27km/h | 20189m | 5.1m/s | -51.4°C | 0.9% | 56.9hPa | 0V | 00:00:00 | 00:00:00 | 00:00:00 | |
| SQ9EZE-15 | 2026-09-01 12:18:39 | 52.47704 | 21.82570 | 82° | 29km/h | 20189m | 5.1m/s | -51.4°C | 0.9% | 56.9hPa | 0V | 00:00:00 | 00:00:00 | 00:00:00 | |
| SQ9EZE-15 | 2026-09-01 12:18:19 | 52.47641 | 21.82299 | 64° | 33km/h | 20067m | 5.7m/s | -51.6°C | 0.9% | 57.9hPa | 0V | 00:00:00 | 00:00:00 | 00:00:00 | |
| SP4MAZ | 2026-09-01 12:18:18 | 52.47641 | 21.82299 | 64° | 33km/h | 20067m | 5.7m/s | -51.6°C | 0.9% | 57.9hPa | 0V | 00:00:00 | 00:00:00 | 00:00:00 | |
| SP3WXH-11 | 2026-09-01 12:18:10 | 52.47585 | 21.82172 | 45° | 37km/h | 20008m | 6.3m/s | -51.7°C | 0.9% | 58.5hPa | 0V | 00:00:00 | 00:00:00 | 00:00:00 | |
| SP4MAZ | 2026-09-01 12:17:58 | 52.47540 | 21.82068 | 45° | 31km/h | 19945m | 5.6m/s | -52.4°C | 0.9% | 59.0hPa | 0V | 00:00:00 | 00:00:00 | 00:00:00 | |
| SQ9EZE-15 | 2026-09-01 12:17:38 | 52.47463 | 21.81978 | 37° | 15km/h | 19840m | 4.5m/s | -52.5°C | 0% | 60.0hPa | 0V | 00:00:00 | 00:00:00 | 00:00:00 | |
| SP4MAZ | 2026-09-01 12:17:35 | 52.47453 | 21.81967 | 43° | 11km/h | 19818m | 6.8m/s | -52.4°C | 1.0% | 60.2hPa | 0V | 00:00:00 | 00:00:00 | 00:00:00 | |
| SP3WXH-11 | 2026-09-01 12:17:08 | 52.47369 | 21.81918 | 350° | 9km/h | 19664m | 5.5m/s | -52.0°C | 0.9% | 61.7hPa | 0V | 00:00:00 | 00:00:00 | 00:00:00 | |
| SP4MAZ | 2026-09-01 12:17:04 | 52.47363 | 21.81922 | 302° | 5km/h | 19647m | 6.9m/s | -51.9°C | 0.9% | 61.8hPa | 0V | 00:00:00 | 00:00:00 | 00:00:00 | |
| SP4MAZ | 2026-09-01 12:16:41 | 52.47321 | 21.81916 | 43° | 20km/h | 19520m | 4.9m/s | -51.5°C | 0.9% | 63.0hPa | 0V | 00:00:00 | 00:00:00 | 00:00:00 | |
| SP3WXH-11 | 2026-09-01 12:16:36 | 52.47301 | 21.81894 | 42° | 16km/h | 19492m | 5.0m/s | -51.3°C | 0.9% | 63.3hPa | 0V | 00:00:00 | 00:00:00 | 00:00:00 | |
| SQ9EZE-15 | 2026-09-01 12:16:33 | 52.47297 | 21.81886 | 39° | 11km/h | 19481m | 6.5m/s | -51.3°C | 0.9% | 63.4hPa | 0V | 00:00:00 | 00:00:00 | 00:00:00 | |
| SQ9EZE-15 | 2026-09-01 12:16:13 | 52.47221 | 21.81773 | 38° | 29km/h | 19369m | 4.9m/s | -51.5°C | 0.9% | 64.5hPa | 0V | 00:00:00 | 00:00:00 | 00:00:00 | |
| SP3WXH-11 | 2026-09-01 12:16:06 | 52.47187 | 21.81725 | 51° | 18km/h | 19326m | 5.5m/s | -51.7°C | 0.9% | 64.9hPa | 0V | 00:00:00 | 00:00:00 | 00:00:00 | |
| SP4MAZ | 2026-09-01 12:15:50 | 52.47116 | 21.81642 | 35° | 27km/h | 19250m | 6.5m/s | -51.9°C | 0.9% | 65.7hPa | 0V | 00:00:00 | 00:00:00 | 00:00:00 | |
| SP3WXH-11 | 2026-09-01 12:15:34 | 52.47051 | 21.81541 | 61° | 18km/h | 19150m | 5.5m/s | -51.1°C | 0.9% | 66.7hPa | 0V | 00:00:00 | 00:00:00 | 00:00:00 | |
| SP4MAZ | 2026-09-01 12:15:32 | 52.47048 | 21.81522 | 88° | 11km/h | 19133m | 6.4m/s | -51.0°C | 0.9% | 66.9hPa | 0V | 00:00:00 | 00:00:00 | 00:00:00 | |
| SP4MAZ | 2026-09-01 12:15:07 | 52.47034 | 21.81412 | 104° | 16km/h | 19007m | 5.2m/s | -51.2°C | 0.9% | 68.2hPa | 0V | 00:00:00 | 00:00:00 | 00:00:00 | |
| SP3WXH-11 | 2026-09-01 12:15:03 | 52.47037 | 21.81381 | 98° | 15km/h | 18981m | 5.2m/s | -51.2°C | 0.9% | 68.5hPa | 0V | 00:00:00 | 00:00:00 | 00:00:00 | |
| SQ9EZE-15 | 2026-09-01 12:14:41 | 52.47005 | 21.81246 | 52° | 20km/h | 18868m | 4.6m/s | 0°C | 0% | 0hPa | 0V | 00:00:00 | 00:00:00 | 00:00:00 | |
| SP4MAZ | 2026-09-01 12:14:39 | 52.47000 | 21.81231 | 91° | 9km/h | 18854m | 4.2m/s | -51.2°C | 0.9% | 69.8hPa | 0V | 00:00:00 | 00:00:00 | 00:00:00 | |
| SP3WXH-11 | 2026-09-01 12:14:33 | 52.47002 | 21.81197 | 41° | 13km/h | 18817m | 5.3m/s | -51.0°C | 0.9% | 70.2hPa | 0V | 00:00:00 | 00:00:00 | 00:00:00 | |
| SP4MAZ | 2026-09-01 12:14:18 | 52.46981 | 21.81126 | 63° | 15km/h | 18750m | 5.1m/s | -50.6°C | 0.9% | 71.0hPa | 0V | 00:00:00 | 00:00:00 | 00:00:00 | |
| SP3WXH-11 | 2026-09-01 12:14:01 | 52.46944 | 21.81056 | 42° | 13km/h | 18652m | 5.1m/s | -50.4°C | 0.9% | 72.1hPa | 0V | 00:00:00 | 00:00:00 | 00:00:00 | |
| SQ9EZE-15 | 2026-09-01 12:14:00 | 52.46943 | 21.81056 | 43° | 13km/h | 18652m | 5.1m/s | -50.4°C | 0.9% | 72.1hPa | 0V | 00:00:00 | 00:00:00 | 00:00:00 | |
| SP4MAZ | 2026-09-01 12:13:58 | 52.46938 | 21.81046 | 48° | 18km/h | 18641m | 6.7m/s | -50.4°C | 0.9% | 72.2hPa | 0V | 00:00:00 | 00:00:00 | 00:00:00 | |
| SQ9EZE-15 | 2026-09-01 12:13:39 | 52.46902 | 21.80956 | 27° | 11km/h | 18538m | 5.3m/s | -49.9°C | 0.9% | 73.3hPa | 0V | 00:00:00 | 00:00:00 | 00:00:00 | |
| SP4MAZ | 2026-09-01 12:13:35 | 52.46890 | 21.80953 | 32° | 15km/h | 18517m | 6.1m/s | -50.0°C | 0.9% | 73.5hPa | 0V | 00:00:00 | 00:00:00 | 00:00:00 | |
| SP3WXH-11 | 2026-09-01 12:13:30 | 52.46872 | 21.80924 | 40° | 18km/h | 18486m | 6.5m/s | -50.1°C | 0.9% | 73.9hPa | 0V | 00:00:00 | 00:00:00 | 00:00:00 | |
| SQ9EZE-15 | 2026-09-01 12:13:19 | 52.46839 | 21.80883 | 28° | 22km/h | 18431m | 6.7m/s | 0°C | 0% | 74.5hPa | 0V | 00:00:00 | 00:00:00 | 00:00:00 | |
| SP4MAZ | 2026-09-01 12:13:14 | 52.46815 | 21.80860 | 46° | 22km/h | 18404m | 6.0m/s | -50.4°C | 0.9% | 74.8hPa | 0V | 00:00:00 | 00:00:00 | 00:00:00 | |
| SP3WXH-11 | 2026-09-01 12:12:59 | 52.46765 | 21.80769 | 56° | 24km/h | 18319m | 6.2m/s | -51.2°C | 1.0% | 75.8hPa | 0V | 00:00:00 | 00:00:00 | 00:00:00 | |
| SP4MAZ | 2026-09-01 12:12:46 | 52.46740 | 21.80663 | 79° | 26km/h | 18257m | 5.9m/s | -51.2°C | 0.9% | 76.5hPa | 0V | 00:00:00 | 00:00:00 | 00:00:00 | |
| SP3WXH-11 | 2026-09-01 12:12:28 | 52.46733 | 21.80426 | 84° | 37km/h | 18153m | 4.8m/s | -51.2°C | 0.9% | 77.8hPa | 0V | 00:00:00 | 00:00:00 | 00:00:00 | |
| SP4MAZ | 2026-09-01 12:12:23 | 52.46727 | 21.80363 | 80° | 38km/h | 18133m | 5.7m/s | -51.4°C | 0.9% | 78.0hPa | 0V | 00:00:00 | 00:00:00 | 00:00:00 | |
| SP4MAZ | 2026-09-01 12:12:03 | 52.46669 | 21.80079 | 64° | 42km/h | 18026m | 6.8m/s | -51.9°C | 1.0% | 79.3hPa | 0V | 00:00:00 | 00:00:00 | 00:00:00 | |
| SP3WXH-11 | 2026-09-01 12:11:58 | 52.46641 | 21.79982 | 62° | 31km/h | 17986m | 6.4m/s | -51.9°C | 1.0% | 79.8hPa | 0V | 00:00:00 | 00:00:00 | 00:00:00 | |
| SP4MAZ | 2026-09-01 12:11:34 | 52.46585 | 21.79755 | 84° | 27km/h | 17866m | 3.6m/s | -51.8°C | 1.0% | 81.3hPa | 0V | 00:00:00 | 00:00:00 | 00:00:00 | |
| SP3WXH-11 | 2026-09-01 12:11:26 | 52.46571 | 21.79647 | 78° | 37km/h | 17821m | 4.9m/s | -51.7°C | 1.0% | 81.9hPa | 0V | 00:00:00 | 00:00:00 | 00:00:00 | |
| SP4MAZ | 2026-09-01 12:11:11 | 52.46541 | 21.79464 | 75° | 33km/h | 17744m | 4.6m/s | -51.5°C | 1.0% | 82.8hPa | 0V | 00:00:00 | 00:00:00 | 00:00:00 | |
| SP3WXH-11 | 2026-09-01 12:10:55 | 52.46501 | 21.79259 | 68° | 26km/h | 17660m | 4.9m/s | -51.3°C | 1.0% | 83.9hPa | 0V | 00:00:00 | 00:00:00 | 00:00:00 | |
| SP4MAZ | 2026-09-01 12:10:43 | 52.46464 | 21.79152 | 63° | 27km/h | 17595m | 4.6m/s | -51.4°C | 1.0% | 84.8hPa | 0V | 00:00:00 | 00:00:00 | 00:00:00 | |
| SQ9EZE-15 | 2026-09-01 12:10:34 | 52.46439 | 21.79089 | 46° | 27km/h | 17547m | 5.2m/s | 0°C | 0% | 0hPa | 0V | 00:00:00 | 00:00:00 | 00:00:00 | |
| SP3WXH-11 | 2026-09-01 12:10:24 | 52.46395 | 21.79040 | 27° | 18km/h | 17490m | 4.1m/s | -51.6°C | 1.0% | 86.1hPa | 0V | 00:00:00 | 00:00:00 | 00:00:00 | |
| SP4MAZ | 2026-09-01 12:10:22 | 52.46395 | 21.79040 | 29° | 20km/h | 17491m | 4.1m/s | -51.6°C | 1.0% | 86.1hPa | 0V | 00:00:00 | 00:00:00 | 00:00:00 | |
| SQ9EZE-15 | 2026-09-01 12:10:03 | 52.46344 | 21.78879 | 91° | 20km/h | 17393m | 5.3m/s | 0°C | 0% | 0hPa | 0V | 00:00:00 | 00:00:00 | 00:00:00 | |
| SP3WXH-11 | 2026-09-01 12:09:54 | 52.46331 | 21.78774 | 57° | 20km/h | 17330m | 5.8m/s | -51.3°C | 1.0% | 88.3hPa | 0V | 00:00:00 | 00:00:00 | 00:00:00 | |
| SP4MAZ | 2026-09-01 12:09:26 | 52.46336 | 21.78524 | 94° | 33km/h | 17198m | 5.4m/s | -50.9°C | 1.0% | 90.1hPa | 0V | 00:00:00 | 00:00:00 | 00:00:00 | |
| SP3WXH-11 | 2026-09-01 12:09:22 | 52.46336 | 21.78444 | 84° | 35km/h | 17164m | 6.1m/s | -51.1°C | 1.0% | 90.6hPa | 0V | 00:00:00 | 00:00:00 | 00:00:00 | |
| SP4MAZ | 2026-09-01 12:09:03 | 52.46317 | 21.78206 | 58° | 31km/h | 17074m | 5.4m/s | -52.1°C | 1.1% | 91.9hPa | 0V | 00:00:00 | 00:00:00 | 00:00:00 | |
| SP3WXH-11 | 2026-09-01 12:08:51 | 52.46278 | 21.78053 | 75° | 29km/h | 16994m | 5.7m/s | -51.4°C | 1.0% | 93.0hPa | 0V | 00:00:00 | 00:00:00 | 00:00:00 | |
| SP4MAZ | 2026-09-01 12:08:44 | 52.46261 | 21.77976 | 72° | 38km/h | 16958m | 6.8m/s | -51.2°C | 1.0% | 93.5hPa | 0V | 00:00:00 | 00:00:00 | 00:00:00 | |
| SP3WXH-11 | 2026-09-01 12:08:20 | 52.46228 | 21.77570 | 83° | 46km/h | 16815m | 3.5m/s | -51.3°C | 1.0% | 95.6hPa | 0V | 00:00:00 | 00:00:00 | 00:00:00 | |
| SP4MAZ | 2026-09-01 12:08:12 | 52.46208 | 21.77445 | 73° | 57km/h | 16786m | 5.4m/s | -51.3°C | 1.0% | 96.0hPa | 0V | 00:00:00 | 00:00:00 | 00:00:00 | |
| SP3WXH-11 | 2026-09-01 12:07:49 | 52.46088 | 21.76926 | 58° | 51km/h | 16655m | 6.3m/s | -51.5°C | 1.1% | 98.0hPa | 0V | 00:00:00 | 00:00:00 | 00:00:00 | |
| SP4MAZ | 2026-09-01 12:07:29 | 52.45965 | 21.76566 | 57° | 49km/h | 16566m | 6.1m/s | -51.1°C | 1.1% | 99.3hPa | 0V | 00:00:00 | 00:00:00 | 00:00:00 | |
| SP3WXH-11 | 2026-09-01 12:07:17 | 52.45877 | 21.76328 | 56° | 49km/h | 16501m | 4.9m/s | -51.3°C | 1.1% | 100.3hPa | 0V | 00:00:00 | 00:00:00 | 00:00:00 | |
| SP3WXH-11 | 2026-09-01 12:06:47 | 52.45676 | 21.75827 | 54° | 44km/h | 16347m | 5.6m/s | -51.6°C | 1.1% | 102.8hPa | 0V | 00:00:00 | 00:00:00 | 00:00:00 | |
| SP4MAZ | 2026-09-01 12:06:39 | 52.45635 | 21.75719 | 56° | 40km/h | 16312m | 5.8m/s | -51.5°C | 1.1% | 103.3hPa | 0V | 00:00:00 | 00:00:00 | 00:00:00 | |
| SP4MAZ | 2026-09-01 12:06:17 | 52.45500 | 21.75438 | 67° | 33km/h | 16192m | 3.6m/s | -51.3°C | 1.1% | 105.2hPa | 0V | 00:00:00 | 00:00:00 | 00:00:00 | |
| SP3WXH-11 | 2026-09-01 12:05:44 | 52.45371 | 21.75144 | 61° | 26km/h | 16023m | 5.7m/s | -50.7°C | 1.1% | 108.0hPa | 0V | 00:00:00 | 00:00:00 | 00:00:00 | |
| SP4MAZ | 2026-09-01 12:05:34 | 52.45340 | 21.75056 | 66° | 29km/h | 15977m | 4.7m/s | -50.5°C | 1.1% | 108.7hPa | 0V | 00:00:00 | 00:00:00 | 00:00:00 | |
| SP3WXH-11 | 2026-09-01 12:05:13 | 52.45299 | 21.74782 | 86° | 33km/h | 15865m | 5.3m/s | -49.9°C | 1.1% | 110.6hPa | 0V | 00:00:00 | 00:00:00 | 00:00:00 | |
| SP4MAZ | 2026-09-01 12:05:02 | 52.45291 | 21.74648 | 78° | 27km/h | 15811m | 4.3m/s | -49.9°C | 1.0% | 111.5hPa | 0V | 00:00:00 | 00:00:00 | 00:00:00 | |
| SP3WXH-11 | 2026-09-01 12:04:42 | 52.45300 | 21.74350 | 89° | 37km/h | 15707m | 5.0m/s | -51.1°C | 1.1% | 113.3hPa | 0V | 00:00:00 | 00:00:00 | 00:00:00 | |
| SP4MAZ | 2026-09-01 12:04:38 | 52.45297 | 21.74306 | 84° | 35km/h | 15690m | 5.7m/s | -51.1°C | 1.1% | 113.6hPa | 0V | 00:00:00 | 00:00:00 | 00:00:00 | |
| SP3WXH-11 | 2026-09-01 12:04:11 | 52.45244 | 21.73879 | 70° | 42km/h | 15548m | 6.0m/s | -50.5°C | 1.1% | 116.0hPa | 0V | 00:00:00 | 00:00:00 | 00:00:00 | |
| SP4MAZ | 2026-09-01 12:04:09 | 52.45236 | 21.73847 | 65° | 40km/h | 15537m | 4.8m/s | -50.4°C | 1.1% | 116.2hPa | 0V | 00:00:00 | 00:00:00 | 00:00:00 | |
| SP4MAZ | 2026-09-01 12:03:48 | 52.45151 | 21.73495 | 71° | 47km/h | 15440m | 3.6m/s | -50.2°C | 1.1% | 118.1hPa | 0V | 00:00:00 | 00:00:00 | 00:00:00 | |
| SP3WXH-11 | 2026-09-01 12:03:40 | 52.45106 | 21.73337 | 62° | 53km/h | 15396m | 3.9m/s | -50.2°C | 1.1% | 118.9hPa | 0V | 00:00:00 | 00:00:00 | 00:00:00 | |
| SP4MAZ | 2026-09-01 12:03:14 | 52.44906 | 21.72917 | 49° | 55km/h | 15272m | 5.6m/s | -50.2°C | 1.1% | 121.2hPa | 0V | 00:00:00 | 00:00:00 | 00:00:00 | |
| SP3WXH-11 | 2026-09-01 12:03:11 | 52.44855 | 21.72833 | 43° | 55km/h | 15249m | 4.7m/s | -50.2°C | 1.1% | 121.6hPa | 0V | 00:00:00 | 00:00:00 | 00:00:00 | |
| SP4MAZ | 2026-09-01 12:02:52 | 52.44699 | 21.72619 | 42° | 49km/h | 15171m | 5.8m/s | -50.5°C | 1.1% | 123.0hPa | 0V | 00:00:00 | 00:00:00 | 00:00:00 | |
| SP3WXH-11 | 2026-09-01 12:02:38 | 52.44562 | 21.72464 | 43° | 42km/h | 15098m | 4.5m/s | -50.6°C | 1.1% | 124.4hPa | 0V | 00:00:00 | 00:00:00 | 00:00:00 | |
| SP4MAZ | 2026-09-01 12:02:31 | 52.44515 | 21.72400 | 30° | 33km/h | 15067m | 6.0m/s | -50.6°C | 1.2% | 125.0hPa | 0V | 00:00:00 | 00:00:00 | 00:00:00 | |
| SP4MAZ | 2026-09-01 12:02:10 | 52.44373 | 21.72200 | 44° | 35km/h | 14960m | 4.6m/s | -49.7°C | 1.1% | 127.1hPa | 0V | 00:00:00 | 00:00:00 | 00:00:00 | |
| SP3WXH-11 | 2026-09-01 12:02:08 | 52.44348 | 21.72156 | 45° | 37km/h | 14938m | 6.0m/s | -49.6°C | 1.2% | 127.5hPa | 0V | 00:00:00 | 00:00:00 | 00:00:00 | |
| SP4MAZ | 2026-09-01 12:01:39 | 52.44147 | 21.71916 | 17° | 33km/h | 14770m | 6.5m/s | -48.1°C | 1.0% | 130.7hPa | 0V | 00:00:00 | 00:00:00 | 00:00:00 | |
| SP3WXH-11 | 2026-09-01 12:01:37 | 52.44122 | 21.71910 | 48° | 13km/h | 14745m | 6.1m/s | -48.0°C | 1.0% | 131.2hPa | 0V | 00:00:00 | 00:00:00 | 00:00:00 | |
| SP4MAZ | 2026-09-01 12:01:19 | 52.44090 | 21.71758 | 85° | 22km/h | 14633m | 5.0m/s | -47.7°C | 1.0% | 133.5hPa | 0V | 00:00:00 | 00:00:00 | 00:00:00 | |
| SP3WXH-11 | 2026-09-01 12:01:05 | 52.44047 | 21.71628 | 77° | 31km/h | 14550m | 6.2m/s | -47.6°C | 1.1% | 135.3hPa | 0V | 00:00:00 | 00:00:00 | 00:00:00 | |
| SP4MAZ | 2026-09-01 12:00:58 | 52.44033 | 21.71572 | 66° | 20km/h | 14519m | 6.3m/s | -47.4°C | 1.1% | 136.0hPa | 0V | 00:00:00 | 00:00:00 | 00:00:00 | |
| SP4MAZ | 2026-09-01 12:00:38 | 52.44024 | 21.71290 | 95° | 26km/h | 14372m | 8.8m/s | -46.9°C | 1.0% | 138.9hPa | 0V | 00:00:00 | 00:00:00 | 00:00:00 | |
| SP3WXH-11 | 2026-09-01 12:00:34 | 52.44032 | 21.71210 | 90° | 53km/h | 14340m | 5.4m/s | -47.2°C | 1.1% | 139.6hPa | 0V | 00:00:00 | 00:00:00 | 00:00:00 | |
| SP4MAZ | 2026-09-01 11:59:47 | 52.44132 | 21.69957 | 96° | 66km/h | 14053m | 4.7m/s | -48.3°C | 1.2% | 145.7hPa | 0V | 00:00:00 | 00:00:00 | 00:00:00 | |
| SP3WXH-11 | 2026-09-01 11:59:32 | 52.44127 | 21.69360 | 90° | 91km/h | 13964m | 6.1m/s | -48.6°C | 1.2% | 147.7hPa | 0V | 00:00:00 | 00:00:00 | 00:00:00 | |
| SP4MAZ | 2026-09-01 11:59:27 | 52.44130 | 21.69175 | 93° | 88km/h | 13939m | 4.9m/s | -49.2°C | 1.3% | 148.3hPa | 0V | 00:00:00 | 00:00:00 | 00:00:00 | |
| SP3WXH-11 | 2026-09-01 11:59:01 | 52.44103 | 21.68166 | 86° | 84km/h | 13803m | 5.1m/s | -50.7°C | 1.4% | 151.4hPa | 0V | 00:00:00 | 00:00:00 | 00:00:00 | |
| SP4MAZ | 2026-09-01 11:58:57 | 52.44099 | 21.68064 | 89° | 78km/h | 13789m | 5.3m/s | -50.7°C | 1.4% | 151.7hPa | 0V | 00:00:00 | 00:00:00 | 00:00:00 | |
| SP4MAZ | 2026-09-01 11:58:35 | 52.44078 | 21.67369 | 85° | 86km/h | 13690m | 3.9m/s | 0°C | 0% | 154.1hPa | 0V | 00:00:00 | 00:00:00 | 00:00:00 | |
| SP3WXH-11 | 2026-09-01 11:58:30 | 52.44060 | 21.67114 | 82° | 86km/h | 13651m | 3.9m/s | -50.9°C | 1.4% | 155.0hPa | 0V | 00:00:00 | 00:00:00 | 00:00:00 | |
| SP4MAZ | 2026-09-01 11:58:14 | 52.43992 | 21.66596 | 76° | 97km/h | 13584m | 3.8m/s | 0°C | 0% | 156.6hPa | 0V | 00:00:00 | 00:00:00 | 00:00:00 | |
| SP3WXH-11 | 2026-09-01 11:57:59 | 52.43915 | 21.66009 | 78° | 84km/h | 13503m | 5.3m/s | -50.1°C | 1.4% | 158.6hPa | 0V | 00:00:00 | 00:00:00 | 00:00:00 | |
| SP4MAZ | 2026-09-01 11:57:40 | 52.43842 | 21.65383 | 75° | 86km/h | 13415m | 3.9m/s | 0°C | 0% | 160.7hPa | 0V | 00:00:00 | 00:00:00 | 00:00:00 | |
| SP3WXH-11 | 2026-09-01 11:57:28 | 52.43753 | 21.64964 | 63° | 84km/h | 13351m | 4.2m/s | -50.5°C | 1.5% | 162.3hPa | 0V | 00:00:00 | 00:00:00 | 00:00:00 | |
| SP4MAZ | 2026-09-01 11:57:18 | 52.43693 | 21.64727 | 78° | 75km/h | 13302m | 6.1m/s | 0°C | 0% | 163.5hPa | 0V | 00:00:00 | 00:00:00 | 00:00:00 | |
| SP4MAZ | 2026-09-01 11:56:57 | 52.43565 | 21.64125 | 72° | 66km/h | 13186m | 5.4m/s | 0°C | 0% | 166.5hPa | 0V | 00:00:00 | 00:00:00 | 00:00:00 | |
| SP4MAZ | 2026-09-01 11:56:36 | 52.43453 | 21.63645 | 73° | 60km/h | 13092m | 5.1m/s | 0°C | 0% | 168.9hPa | 0V | 00:00:00 | 00:00:00 | 00:00:00 | |
| SP3WXH-11 | 2026-09-01 11:56:26 | 52.43396 | 21.63355 | 77° | 55km/h | 13034m | 3.9m/s | -50.1°C | 1.5% | 170.4hPa | 0V | 00:00:00 | 00:00:00 | 00:00:00 | |
| SP4MAZ | 2026-09-01 11:56:12 | 52.43352 | 21.63080 | 77° | 60km/h | 12975m | 6.1m/s | -50.0°C | 1.4% | 172.0hPa | 0V | 00:00:00 | 00:00:00 | 00:00:00 | |
| SP3WXH-11 | 2026-09-01 11:55:55 | 52.43303 | 21.62599 | 87° | 62km/h | 12876m | 5.7m/s | -49.5°C | 1.4% | 174.6hPa | 0V | 00:00:00 | 00:00:00 | 00:00:00 | |
| SP4MAZ | 2026-09-01 11:55:53 | 52.43302 | 21.62573 | 86° | 62km/h | 12870m | 5.6m/s | -49.6°C | 0% | 174.7hPa | 0V | 00:00:00 | 00:00:00 | 00:00:00 | |
| SP3WXH-11 | 2026-09-01 11:55:24 | 52.43152 | 21.61844 | 64° | 60km/h | 12692m | 6.1m/s | -49.3°C | 1.4% | 179.4hPa | 0V | 00:00:00 | 00:00:00 | 00:00:00 | |
| SP3WXH-11 | 2026-09-01 11:54:53 | 52.42899 | 21.61187 | 48° | 62km/h | 12527m | 4.3m/s | -48.2°C | 1.4% | 184.0hPa | 0V | 00:00:00 | 00:00:00 | 00:00:00 | |
| SP3WXH-11 | 2026-09-01 11:54:22 | 52.42629 | 21.60583 | 50° | 69km/h | 12354m | 6.6m/s | -46.9°C | 1.4% | 188.9hPa | 0V | 00:00:00 | 00:00:00 | 00:00:00 | |
| SP3WXH-11 | 2026-09-01 11:53:51 | 52.42457 | 21.59877 | 75° | 58km/h | 12144m | 6.4m/s | -46.9°C | 1.5% | 195.1hPa | 0V | 00:00:00 | 00:00:00 | 00:00:00 | |
| SP3WXH-11 | 2026-09-01 11:53:20 | 52.42421 | 21.59134 | 73° | 62km/h | 11933m | 6.5m/s | -47.0°C | 0% | 201.3hPa | 0V | 00:00:00 | 00:00:00 | 00:00:00 | |
| SP4MAZ | 2026-09-01 11:53:18 | 52.42417 | 21.59108 | 77° | 64km/h | 11927m | 5.5m/s | -47.0°C | 0% | 201.4hPa | 0V | 00:00:00 | 00:00:00 | 00:00:00 | |
| SP3WXH-11 | 2026-09-01 11:52:48 | 52.42363 | 21.58214 | 81° | 88km/h | 11755m | 6.4m/s | -47.0°C | 2.2% | 206.9hPa | 0V | 00:00:00 | 00:00:00 | 00:00:00 | |
| SP4MAZ | 2026-09-01 11:52:44 | 52.42353 | 21.58110 | 83° | 77km/h | 11740m | 3.8m/s | 0°C | 0% | 207.4hPa | 0V | 00:00:00 | 00:00:00 | 00:00:00 | |
| SP4MAZ | 2026-09-01 11:52:21 | 52.42303 | 21.57366 | 89° | 77km/h | 11634m | 5.0m/s | -46.8°C | 0% | 210.7hPa | 0V | 00:00:00 | 00:00:00 | 00:00:00 | |
| SP3WXH-11 | 2026-09-01 11:52:17 | 52.42297 | 21.57206 | 88° | 77km/h | 11611m | 4.2m/s | -47.1°C | 2.5% | 211.5hPa | 0V | 00:00:00 | 00:00:00 | 00:00:00 | |
| SP3WXH-11 | 2026-09-01 11:51:46 | 52.42245 | 21.56166 | 81° | 84km/h | 11463m | 6.5m/s | -46.9°C | 2.3% | 216.5hPa | 0V | 00:00:00 | 00:00:00 | 00:00:00 | |
| SP4MAZ | 2026-09-01 11:51:27 | 52.42151 | 21.55533 | 80° | 91km/h | 11341m | 3.7m/s | 0°C | 0% | 220.2hPa | 0V | 00:00:00 | 00:00:00 | 00:00:00 | |
| SP3WXH-11 | 2026-09-01 11:51:15 | 52.42115 | 21.55184 | 87° | 68km/h | 11265m | 8.1m/s | -46.8°C | 2.5% | 222.6hPa | 0V | 00:00:00 | 00:00:00 | 00:00:00 | |
| SP4MAZ | 2026-09-01 11:51:06 | 52.42117 | 21.54923 | 84° | 75km/h | 11214m | 5.2m/s | -46.4°C | 0% | 224.3hPa | 0V | 00:00:00 | 00:00:00 | 00:00:00 | |
| SP3WXH-11 | 2026-09-01 11:50:44 | 52.42127 | 21.54264 | 96° | 75km/h | 11087m | 4.7m/s | -45.9°C | 3.3% | 228.7hPa | 0V | 00:00:00 | 00:00:00 | 00:00:00 | |
| SP3WXH-11 | 2026-09-01 11:50:13 | 52.42163 | 21.53354 | 95° | 64km/h | 10903m | 5.9m/s | -45.9°C | 3.8% | 235.0hPa | 0V | 00:00:00 | 00:00:00 | 00:00:00 | |
| SP4MAZ | 2026-09-01 11:49:53 | 52.42253 | 21.52727 | 103° | 91km/h | 10789m | 4.5m/s | 0°C | 0% | 239.1hPa | 0V | 00:00:00 | 00:00:00 | 00:00:00 | |
| SP3WXH-11 | 2026-09-01 11:49:42 | 52.42320 | 21.52305 | 99° | 88km/h | 10731m | 5.1m/s | -46.0°C | 4.1% | 241.2hPa | 0V | 00:00:00 | 00:00:00 | 00:00:00 | |
| SP4MAZ | 2026-09-01 11:49:33 | 52.42362 | 21.51966 | 98° | 104km/h | 10670m | 6.9m/s | -45.8°C | 0% | 243.4hPa | 0V | 00:00:00 | 00:00:00 | 00:00:00 | |
| SP4MAZ | 2026-09-01 11:49:12 | 52.42414 | 21.51225 | 96° | 93km/h | 10545m | 5.8m/s | -45.5°C | 0% | 248.1hPa | 0V | 00:00:00 | 00:00:00 | 00:00:00 | |
| SP3WXH-11 | 2026-09-01 11:49:11 | 52.42419 | 21.51149 | 94° | 91km/h | 10532m | 7.3m/s | -45.5°C | 3.7% | 248.6hPa | 0V | 00:00:00 | 00:00:00 | 00:00:00 | |
| SP3WXH-11 | 2026-09-01 11:48:40 | 52.42491 | 21.49956 | 97° | 93km/h | 10344m | 6.7m/s | -45.1°C | 5.3% | 255.6hPa | 0V | 00:00:00 | 00:00:00 | 00:00:00 | |
| SP4MAZ | 2026-09-01 11:48:25 | 52.42534 | 21.49373 | 95° | 89km/h | 10245m | 5.5m/s | 0°C | 0% | 259.4hPa | 0V | 00:00:00 | 00:00:00 | 00:00:00 | |
| SP3WXH-11 | 2026-09-01 11:48:09 | 52.42570 | 21.48774 | 99° | 99km/h | 10154m | 6.2m/s | -45.0°C | 6.1% | 263.0hPa | 0V | 00:00:00 | 00:00:00 | 00:00:00 | |
| SP4MAZ | 2026-09-01 11:48:03 | 52.42592 | 21.48543 | 101° | 95km/h | 10122m | 5.4m/s | 0°C | 0% | 264.3hPa | 0V | 00:00:00 | 00:00:00 | 00:00:00 | |
| SP4MAZ | 2026-09-01 11:47:42 | 52.42636 | 21.47725 | 91° | 99km/h | 9999m | 8.0m/s | -44.7°C | 0% | 269.2hPa | 0V | 00:00:00 | 00:00:00 | 00:00:00 | |
| SP3WXH-11 | 2026-09-01 11:47:38 | 52.42634 | 21.47513 | 89° | 97km/h | 9968m | 3.7m/s | -44.8°C | 6.7% | 270.4hPa | 0V | 00:00:00 | 00:00:00 | 00:00:00 | |
| SP4MAZ | 2026-09-01 11:47:22 | 52.42659 | 21.46920 | 98° | 104km/h | 9891m | 5.2m/s | -44.5°C | 0% | 273.6hPa | 0V | 00:00:00 | 00:00:00 | 00:00:00 | |
| SP3WXH-11 | 2026-09-01 11:47:07 | 52.42700 | 21.46296 | 94° | 108km/h | 9806m | 6.1m/s | -44.0°C | 7.0% | 277.1hPa | 0V | 00:00:00 | 00:00:00 | 00:00:00 | |
| SP4MAZ | 2026-09-01 11:47:00 | 52.42710 | 21.45987 | 96° | 110km/h | 9765m | 7.4m/s | -43.9°C | 0% | 278.8hPa | 0V | 00:00:00 | 00:00:00 | 00:00:00 | |
| SP3WXH-11 | 2026-09-01 11:46:36 | 52.42754 | 21.45042 | 95° | 100km/h | 9621m | 5.4m/s | -43.1°C | 7.4% | 284.8hPa | 0V | 00:00:00 | 00:00:00 | 00:00:00 | |
| SP4MAZ | 2026-09-01 11:46:28 | 52.42762 | 21.44712 | 95° | 102km/h | 9574m | 6.6m/s | 0°C | 0% | 286.8hPa | 0V | 00:00:00 | 00:00:00 | 00:00:00 | |
| SP4MAZ | 2026-09-01 11:46:07 | 52.42810 | 21.43906 | 95° | 100km/h | 9463m | 5.2m/s | 0°C | 0% | 291.6hPa | 0V | 00:00:00 | 00:00:00 | 00:00:00 | |
| SP3WXH-11 | 2026-09-01 11:46:05 | 52.42821 | 21.43747 | 102° | 97km/h | 9438m | 4.2m/s | -43.1°C | 8.3% | 292.6hPa | 0V | 00:00:00 | 00:00:00 | 00:00:00 | |
| SP4MAZ | 2026-09-01 11:45:45 | 52.42890 | 21.42926 | 99° | 104km/h | 9329m | 5.7m/s | -42.7°C | 0% | 297.4hPa | 0V | 00:00:00 | 00:00:00 | 00:00:00 | |
| SP3WXH-11 | 2026-09-01 11:45:34 | 52.42915 | 21.42391 | 93° | 104km/h | 9261m | 6.5m/s | -42.4°C | -1.0% | 300.3hPa | 0V | 00:00:00 | 00:00:00 | 00:00:00 | |
| SP4MAZ | 2026-09-01 11:45:24 | 52.42929 | 21.42053 | 94° | 108km/h | 9212m | 3.1m/s | -42.1°C | 0% | 302.6hPa | 0V | 00:00:00 | 00:00:00 | 00:00:00 | |
| SP3WXH-11 | 2026-09-01 11:45:03 | 52.42923 | 21.41111 | 85° | 89km/h | 9082m | 4.4m/s | 0°C | -1.0% | -1.0hPa | 0V | 00:00:00 | 00:00:00 | 00:00:00 | |
| SP4MAZ | 2026-09-01 11:44:54 | 52.42921 | 21.40853 | 94° | 100km/h | 9043m | 5.4m/s | 0°C | 0% | 310.2hPa | 0V | 00:00:00 | 00:00:00 | 00:00:00 | |
| SP4MAZ | 2026-09-01 11:44:33 | 52.42920 | 21.40038 | 88° | 91km/h | 8936m | 5.2m/s | 0°C | 0% | 315.3hPa | 0V | 00:00:00 | 00:00:00 | 00:00:00 | |
| SP4MAZ | 2026-09-01 11:44:09 | 52.42902 | 21.39057 | 92° | 113km/h | 8803m | 5.5m/s | -41.2°C | 0% | 321.3hPa | 0V | 00:00:00 | 00:00:00 | 00:00:00 | |
| SP4MAZ | 2026-09-01 11:43:48 | 52.42876 | 21.38124 | 91° | 99km/h | 8686m | 6.3m/s | -40.9°C | 0% | 326.9hPa | 0V | 00:00:00 | 00:00:00 | 00:00:00 | |
| SP4MAZ | 2026-09-01 11:43:18 | 52.42800 | 21.36912 | 89° | 100km/h | 8515m | 6.5m/s | 0°C | 0% | 335.3hPa | 0V | 00:00:00 | 00:00:00 | 00:00:00 | |
| SP4MAZ | 2026-09-01 11:42:58 | 52.42767 | 21.36108 | 82° | 88km/h | 8408m | 4.9m/s | 0°C | 0% | 340.5hPa | 0V | 00:00:00 | 00:00:00 | 00:00:00 | |
| SP4MAZ | 2026-09-01 11:42:34 | 52.42735 | 21.35159 | 94° | 99km/h | 8264m | 6.0m/s | -39.5°C | 0% | 347.5hPa | 0V | 00:00:00 | 00:00:00 | 00:00:00 | |
| SP4MAZ | 2026-09-01 11:42:13 | 52.42717 | 21.34320 | 86° | 84km/h | 8148m | 5.7m/s | -38.7°C | 0% | 353.7hPa | 0V | 00:00:00 | 00:00:00 | 00:00:00 | |
| SP4MAZ | 2026-09-01 11:41:42 | 52.42662 | 21.33191 | 81° | 97km/h | 7974m | 6.4m/s | 0°C | 0% | 362.7hPa | 0V | 00:00:00 | 00:00:00 | 00:00:00 | |
| SP4MAZ | 2026-09-01 11:41:21 | 52.42621 | 21.32410 | 90° | 88km/h | 7860m | 5.0m/s | 0°C | 0% | 368.8hPa | 0V | 00:00:00 | 00:00:00 | 00:00:00 | |
| SP4MAZ | 2026-09-01 11:40:58 | 52.42593 | 21.31614 | 88° | 95km/h | 7736m | 6.2m/s | -36.0°C | 0% | 375.5hPa | 0V | 00:00:00 | 00:00:00 | 00:00:00 | |
| SP4MAZ | 2026-09-01 11:40:38 | 52.42548 | 21.30914 | 91° | 84km/h | 7629m | 5.0m/s | -35.0°C | 0% | 381.2hPa | 0V | 00:00:00 | 00:00:00 | 00:00:00 | |
| SP4MAZ | 2026-09-01 11:40:07 | 52.42504 | 21.29839 | 81° | 88km/h | 7478m | 7.2m/s | 0°C | 0% | 389.6hPa | 0V | 00:00:00 | 00:00:00 | 00:00:00 | |
| SP4MAZ | 2026-09-01 11:39:47 | 52.42454 | 21.29087 | 82° | 88km/h | 7362m | 5.5m/s | 0°C | 0% | 396.1hPa | 0V | 00:00:00 | 00:00:00 | 00:00:00 | |
| SP4MAZ | 2026-09-01 11:39:25 | 52.42391 | 21.28330 | 91° | 86km/h | 7247m | 4.7m/s | -31.7°C | 0% | 402.6hPa | 0V | 00:00:00 | 00:00:00 | 00:00:00 | |
| SP4MAZ | 2026-09-01 11:39:04 | 52.42367 | 21.27641 | 86° | 84km/h | 7143m | 6.2m/s | 0°C | 0% | 408.5hPa | 0V | 00:00:00 | 00:00:00 | 00:00:00 | |
| SP4MAZ | 2026-09-01 11:38:44 | 52.42310 | 21.26973 | 80° | 80km/h | 7037m | 6.0m/s | 0°C | 0% | 414.7hPa | 0V | 00:00:00 | 00:00:00 | 00:00:00 | |
| SP4MAZ | 2026-09-01 11:38:23 | 52.42268 | 21.26291 | 85° | 80km/h | 6929m | 6.5m/s | 0°C | 0% | 421.1hPa | 0V | 00:00:00 | 00:00:00 | 00:00:00 | |
| SP4MAZ | 2026-09-01 11:37:51 | 52.42218 | 21.25191 | 97° | 84km/h | 6748m | 4.2m/s | 0°C | 0% | 431.9hPa | 0V | 00:00:00 | 00:00:00 | 00:00:00 | |
| SP4MAZ | 2026-09-01 11:37:29 | 52.42215 | 21.24481 | 87° | 75km/h | 6629m | 5.9m/s | 0°C | 0% | 439.0hPa | 0V | 00:00:00 | 00:00:00 | 00:00:00 | |
| SP4MAZ | 2026-09-01 11:37:08 | 52.42216 | 21.23788 | 91° | 84km/h | 6516m | 4.6m/s | 0°C | 0% | 445.8hPa | 0V | 00:00:00 | 00:00:00 | 00:00:00 | |
| SP4MAZ | 2026-09-01 11:36:36 | 52.42219 | 21.22726 | 86° | 82km/h | 6349m | 5.5m/s | 0°C | 0% | 456.1hPa | 0V | 00:00:00 | 00:00:00 | 00:00:00 | |
| SP4MAZ | 2026-09-01 11:36:12 | 52.42203 | 21.21917 | 100° | 71km/h | 6228m | 3.8m/s | 0°C | 0% | 0hPa | 0V | 00:00:00 | 00:00:00 | 00:00:00 | |
| SP4MAZ | 2026-09-01 11:35:52 | 52.42230 | 21.21253 | 84° | 75km/h | 6124m | 6.2m/s | 0°C | 0% | 0hPa | 0V | 00:00:00 | 00:00:00 | 00:00:00 | |
| SP4MAZ | 2026-09-01 11:35:20 | 52.42197 | 21.20281 | 87° | 84km/h | 5959m | 5.1m/s | 0°C | 0% | 0hPa | 0V | 00:00:00 | 00:00:00 | 00:00:00 | |
| SP4MAZ | 2026-09-01 11:35:00 | 52.42201 | 21.19601 | 82° | 77km/h | 5859m | 4.7m/s | 0°C | 0% | 0hPa | 0V | 00:00:00 | 00:00:00 | 00:00:00 | |
| SP4MAZ | 2026-09-01 11:34:36 | 52.42165 | 21.18840 | 96° | 84km/h | 5737m | 4.7m/s | 0°C | 0% | 0hPa | 0V | 00:00:00 | 00:00:00 | 00:00:00 | |
| SP4MAZ | 2026-09-01 11:34:15 | 52.42173 | 21.18178 | 91° | 60km/h | 5629m | 4.6m/s | 0°C | 0% | 0hPa | 0V | 00:00:00 | 00:00:00 | 00:00:00 | |
| SP4MAZ | 2026-09-01 11:33:54 | 52.42136 | 21.17584 | 80° | 71km/h | 5507m | 4.1m/s | 0°C | 0% | 0hPa | 0V | 00:00:00 | 00:00:00 | 00:00:00 | |
| SP4MAZ | 2026-09-01 11:33:23 | 52.42108 | 21.16666 | 80° | 71km/h | 5349m | 4.8m/s | 0°C | 0% | 0hPa | 0V | 00:00:00 | 00:00:00 | 00:00:00 | |
| SP4MAZ | 2026-09-01 11:33:02 | 52.42070 | 21.16058 | 79° | 68km/h | 5235m | 8.0m/s | 0°C | 0% | 0hPa | 0V | 00:00:00 | 00:00:00 | 00:00:00 | |
| SP4MAZ | 2026-09-01 11:32:42 | 52.42049 | 21.15496 | 93° | 77km/h | 5122m | 5.2m/s | 0°C | 0% | 0hPa | 0V | 00:00:00 | 00:00:00 | 00:00:00 | |
| SP4MAZ | 2026-09-01 11:32:20 | 52.42008 | 21.14853 | 89° | 78km/h | 4998m | 5.1m/s | 0°C | 0% | 0hPa | 0V | 00:00:00 | 00:00:00 | 00:00:00 | |
| SP4MAZ | 2026-09-01 11:31:59 | 52.41988 | 21.14240 | 90° | 71km/h | 4880m | 4.0m/s | 0°C | 0% | 0hPa | 0V | 00:00:00 | 00:00:00 | 00:00:00 | |
| SP4MAZ | 2026-09-01 11:31:25 | 52.41959 | 21.13335 | 99° | 66km/h | 4680m | 4.4m/s | 0°C | 0% | 0hPa | 0V | 00:00:00 | 00:00:00 | 00:00:00 | |
| SP4MAZ | 2026-09-01 11:31:01 | 52.41956 | 21.12679 | 87° | 73km/h | 4537m | 4.9m/s | 0°C | 0% | 0hPa | 0V | 00:00:00 | 00:00:00 | 00:00:00 | |
| SP4MAZ | 2026-09-01 11:30:25 | 52.41899 | 21.11692 | 86° | 77km/h | 4321m | 4.8m/s | 0°C | 0% | 0hPa | 0V | 00:00:00 | 00:00:00 | 00:00:00 | |
| SP4MAZ | 2026-09-01 11:29:50 | 52.41868 | 21.10773 | 95° | 64km/h | 4117m | 6.9m/s | 0°C | 0% | 0hPa | 0V | 00:00:00 | 00:00:00 | 00:00:00 | |
| SP4MAZ | 2026-09-01 11:29:29 | 52.41826 | 21.10277 | 82° | 55km/h | 3997m | 5.8m/s | 0°C | 0% | 0hPa | 0V | 00:00:00 | 00:00:00 | 00:00:00 | |
| SP4MAZ | 2026-09-01 11:28:58 | 52.41806 | 21.09500 | 95° | 55km/h | 3806m | 6.4m/s | 0°C | 0% | 0hPa | 0V | 00:00:00 | 00:00:00 | 00:00:00 |